Observation data for Lesley on 07/03/2020      Previous  Date  Next       Current Mesonet Observations  Soil Data  Daily Summary Page  Observations in Plain Language
KLE1 030500Z 10005KT 27/18 A3001 RMK A01 T02710184  RH  059%=      5-min Rain = 0
KLE1 030501Z 14007KT 27/18 A3001 RMK A01 T02710184  RH  059%=      5-min Rain = 0
KLE1 030502Z 16006KT 27/19 A3001 RMK A01 T02700186  RH  060%=      5-min Rain = 0
KLE1 030503Z 15007KT 27/19 A3001 RMK A01 T02680185  RH  060%=      5-min Rain = 0
KLE1 030504Z 14009KT 27/18 A3001 RMK A01 T02690181  RH  059%=      5-min Rain = 0
KLE1 030505Z 13007KT 27/18 A3001 RMK A01 T02720180  RH  057%=      5-min Rain = 0
KLE1 030506Z 13007KT 28/18 A3001 RMK A01 T02750182  RH  057%=      5-min Rain = 0
KLE1 030507Z 14007KT 28/18 A3001 RMK A01 T02760183  RH  057%=      5-min Rain = 0
KLE1 030508Z 15008KT 28/18 A3001 RMK A01 T02760182  RH  057%=      5-min Rain = 0
KLE1 030509Z 16008KT 28/18 A3001 RMK A01 T02760184  RH  057%=      5-min Rain = 0
KLE1 030510Z 17007KT 27/18 A3001 RMK A01 T02730184  RH  058%=      5-min Rain = 0
KLE1 030511Z 17008KT 27/19 A3001 RMK A01 T02720185  RH  059%=      5-min Rain = 0
KLE1 030512Z 16009KT 27/19 A3001 RMK A01 T02700186  RH  060%=      5-min Rain = 0
KLE1 030513Z 16009KT 27/19 A3001 RMK A01 T02690186  RH  061%=      5-min Rain = 0
KLE1 030514Z 17008KT 27/19 A3001 RMK A01 T02670188  RH  062%=      5-min Rain = 0
KLE1 030515Z 17009KT 27/19 A30 RMK A01 T02650190  RH  063%=      5-min Rain = 0
KLE1 030516Z 17010KT 26/19 A30 RMK A01 T02630190  RH  064%=      5-min Rain = 0
KLE1 030517Z 16010KT 26/19 A30 RMK A01 T02620190  RH  065%=      5-min Rain = 0
KLE1 030518Z 16010KT 26/19 A30 RMK A01 T02610190  RH  065%=      5-min Rain = 0
KLE1 030519Z 17009KT 26/19 A30 RMK A01 T02610190  RH  065%=      5-min Rain = 0
KLE1 030520Z 17011KT 26/19 A30 RMK A01 T02610191  RH  066%=      5-min Rain = 0
KLE1 030521Z 17010KT 26/19 A2999 RMK A01 T02600192  RH  066%=      5-min Rain = 0
KLE1 030522Z 16011KT 26/19 A2999 RMK A01 T02590192  RH  067%=      5-min Rain = 0
KLE1 030523Z 17012KT 26/19 A2999 RMK A01 T02580192  RH  067%=      5-min Rain = 0
KLE1 030524Z 16013KT 26/19 A2999 RMK A01 T02580192  RH  067%=      5-min Rain = 0
KLE1 030525Z 15012KT 26/19 A2999 RMK A01 T02580191  RH  067%=      5-min Rain = 0
KLE1 030526Z 15011KT 26/19 A2999 RMK A01 T02580190  RH  066%=      5-min Rain = 0
KLE1 030527Z 16012KT 26/19 A2999 RMK A01 T02590190  RH  066%=      5-min Rain = 0
KLE1 030528Z 16012KT 26/19 A2999 RMK A01 T02600191  RH  066%=      5-min Rain = 0
KLE1 030529Z 16012KT 26/19 A2999 RMK A01 T02600192  RH  066%=      5-min Rain = 0
KLE1 030530Z 16012KT 26/19 A2999 RMK A01 T02600192  RH  066%=      5-min Rain = 0
KLE1 030531Z 16009KT 26/19 A2999 RMK A01 T02590192  RH  066%=      5-min Rain = 0
KLE1 030532Z 16010KT 26/19 A2999 RMK A01 T02580192  RH  067%=      5-min Rain = 0
KLE1 030533Z 16011KT 26/19 A2999 RMK A01 T02580192  RH  067%=      5-min Rain = 0
KLE1 030534Z 16010KT 26/19 A2999 RMK A01 T02590193  RH  067%=      5-min Rain = 0
KLE1 030535Z 15010KT 26/19 A2999 RMK A01 T02580193  RH  067%=      5-min Rain = 0
KLE1 030536Z 14009KT 26/19 A2999 RMK A01 T02580192  RH  067%=      5-min Rain = 0
KLE1 030537Z 14009KT 26/19 A2999 RMK A01 T02580191  RH  066%=      5-min Rain = 0
KLE1 030538Z 15010KT 26/19 A30 RMK A01 T02590190  RH  066%=      5-min Rain = 0
KLE1 030539Z 14009KT 26/19 A30 RMK A01 T02600191  RH  066%=      5-min Rain = 0
KLE1 030540Z 14008KT 26/19 A30 RMK A01 T02600191  RH  066%=      5-min Rain = 0
KLE1 030541Z 13008KT 26/19 A30 RMK A01 T02600192  RH  066%=      5-min Rain = 0
KLE1 030542Z 13007KT 26/19 A30 RMK A01 T02600192  RH  066%=      5-min Rain = 0
KLE1 030543Z 11006KT 26/19 A30 RMK A01 T02600192  RH  066%=      5-min Rain = 0
KLE1 030544Z 11006KT 26/19 A30 RMK A01 T02610192  RH  066%=      5-min Rain = 0
KLE1 030545Z 10007KT 26/19 A30 RMK A01 T02610192  RH  066%=      5-min Rain = 0
KLE1 030546Z 10006KT 26/19 A30 RMK A01 T02610192  RH  066%=      5-min Rain = 0
KLE1 030547Z 10006KT 26/19 A30 RMK A01 T02610192  RH  066%=      5-min Rain = 0
KLE1 030548Z 11005KT 26/19 A30 RMK A01 T02610192  RH  066%=      5-min Rain = 0
KLE1 030549Z 10004KT 26/19 A30 RMK A01 T02610192  RH  066%=      5-min Rain = 0
KLE1 030550Z 10004KT 26/19 A30 RMK A01 T02610192  RH  066%=      5-min Rain = 0
KLE1 030551Z 09004KT 26/19 A30 RMK A01 T02610192  RH  066%=      5-min Rain = 0
KLE1 030552Z 10004KT 26/19 A30 RMK A01 T02610192  RH  066%=      5-min Rain = 0
KLE1 030553Z 12005KT 26/19 A30 RMK A01 T02610192  RH  066%=      5-min Rain = 0
KLE1 030554Z 12005KT 26/19 A30 RMK A01 T02610192  RH  066%=      5-min Rain = 0
KLE1 030555Z 13005KT 26/19 A30 RMK A01 T02610191  RH  066%=      5-min Rain = 0
KLE1 030556Z 13004KT 26/19 A30 RMK A01 T02610191  RH  065%=      5-min Rain = 0
KLE1 030557Z 13004KT 26/19 A30 RMK A01 T02610192  RH  066%=      5-min Rain = 0
KLE1 030558Z 14004KT 26/19 A30 RMK A01 T02610192  RH  066%=      5-min Rain = 0
KLE1 030559Z 14004KT 26/19 A30 RMK A01 T02610192  RH  066%=      5-min Rain = 0
KLE1 030600Z 16004KT 26/19 A30 RMK A01 T02610193  RH  066%=      5-min Rain = 0
KLE1 030601Z 15004KT 26/19 A2999 RMK A01 T02610193  RH  066%=      5-min Rain = 0
KLE1 030602Z 15004KT 26/19 A2999 RMK A01 T02600193  RH  066%=      5-min Rain = 0
KLE1 030603Z 15004KT 26/19 A2999 RMK A01 T02600192  RH  066%=      5-min Rain = 0
KLE1 030604Z 16004KT 26/19 A2999 RMK A01 T02590193  RH  067%=      5-min Rain = 0
KLE1 030605Z 16003KT 26/19 A2999 RMK A01 T02590193  RH  067%=      5-min Rain = 0
KLE1 030606Z 16003KT 26/19 A2999 RMK A01 T02590193  RH  067%=      5-min Rain = 0
KLE1 030607Z 15003KT 26/19 A2999 RMK A01 T02590193  RH  067%=      5-min Rain = 0
KLE1 030608Z 15004KT 26/19 A2999 RMK A01 T02590193  RH  067%=      5-min Rain = 0
KLE1 030609Z 16004KT 26/19 A2999 RMK A01 T02590193  RH  067%=      5-min Rain = 0
KLE1 030610Z 17004KT 26/19 A2999 RMK A01 T02590193  RH  067%=      5-min Rain = 0
KLE1 030611Z 17004KT 26/19 A2999 RMK A01 T02590193  RH  067%=      5-min Rain = 0
KLE1 030612Z 18003KT 26/19 A2999 RMK A01 T02590193  RH  067%=      5-min Rain = 0
KLE1 030613Z 19003KT 26/19 A2999 RMK A01 T02580193  RH  067%=      5-min Rain = 0
KLE1 030614Z 20003KT 26/19 A2999 RMK A01 T02580193  RH  067%=      5-min Rain = 0
KLE1 030615Z 20003KT 26/19 A2999 RMK A01 T02580193  RH  068%=      5-min Rain = 0
KLE1 030616Z 20003KT 26/19 A2998 RMK A01 T02570194  RH  068%=      5-min Rain = 0
KLE1 030617Z 19003KT 26/19 A2998 RMK A01 T02570193  RH  068%=      5-min Rain = 0
KLE1 030618Z 20003KT 26/19 A2998 RMK A01 T02570193  RH  068%=      5-min Rain = 0
KLE1 030619Z 20004KT 26/19 A2998 RMK A01 T02570194  RH  068%=      5-min Rain = 0
KLE1 030620Z 19005KT 26/19 A2998 RMK A01 T02570193  RH  068%=      5-min Rain = 0
KLE1 030621Z 19005KT 26/19 A2998 RMK A01 T02580193  RH  067%=      5-min Rain = 0
KLE1 030622Z 19005KT 26/19 A2998 RMK A01 T02580193  RH  067%=      5-min Rain = 0
KLE1 030623Z 18006KT 26/19 A2998 RMK A01 T02590193  RH  067%=      5-min Rain = 0
KLE1 030624Z 18006KT 26/19 A2998 RMK A01 T02590192  RH  066%=      5-min Rain = 0
KLE1 030625Z 19006KT 26/19 A2998 RMK A01 T02600191  RH  066%=      5-min Rain = 0
KLE1 030626Z 18005KT 26/19 A2998 RMK A01 T02610192  RH  066%=      5-min Rain = 0
KLE1 030627Z 18006KT 26/19 A2998 RMK A01 T02610192  RH  066%=      5-min Rain = 0
KLE1 030628Z 18006KT 26/19 A2998 RMK A01 T02610191  RH  065%=      5-min Rain = 0
KLE1 030629Z 18006KT 26/19 A2997 RMK A01 T02610191  RH  065%=      5-min Rain = 0
KLE1 030630Z 20006KT 26/19 A2997 RMK A01 T02620191  RH  065%=      5-min Rain = 0
KLE1 030631Z 21006KT 26/19 A2997 RMK A01 T02610191  RH  065%=      5-min Rain = 0
KLE1 030632Z 22007KT 26/19 A2997 RMK A01 T02610192  RH  066%=      5-min Rain = 0
KLE1 030633Z 23007KT 26/19 A2997 RMK A01 T02590192  RH  066%=      5-min Rain = 0
KLE1 030634Z 24008KT 26/19 A2997 RMK A01 T02580193  RH  067%=      5-min Rain = 0
KLE1 030635Z 24008KT 26/19 A2997 RMK A01 T02550192  RH  068%=      5-min Rain = 0
KLE1 030636Z 24009KT 25/19 A2997 RMK A01 T02540193  RH  069%=      5-min Rain = 0
KLE1 030637Z 24007KT 25/19 A2997 RMK A01 T02530193  RH  069%=      5-min Rain = 0
KLE1 030638Z 23008KT 25/19 A2997 RMK A01 T02520193  RH  070%=      5-min Rain = 0
KLE1 030639Z 24009KT 25/19 A2997 RMK A01 T02520192  RH  069%=      5-min Rain = 0
KLE1 030640Z 24007KT 25/19 A2997 RMK A01 T02530192  RH  069%=      5-min Rain = 0
KLE1 030641Z 23007KT 25/19 A2997 RMK A01 T02530192  RH  069%=      5-min Rain = 0
KLE1 030642Z 22007KT 25/19 A2997 RMK A01 T02540192  RH  069%=      5-min Rain = 0
KLE1 030643Z 22005KT 26/19 A2997 RMK A01 T02550192  RH  068%=      5-min Rain = 0
KLE1 030644Z 21006KT 26/19 A2997 RMK A01 T02560192  RH  068%=      5-min Rain = 0
KLE1 030645Z 22005KT 26/19 A2997 RMK A01 T02580192  RH  067%=      5-min Rain = 0
KLE1 030646Z 22005KT 26/19 A2997 RMK A01 T02590192  RH  067%=      5-min Rain = 0
KLE1 030647Z 22004KT 26/19 A2997 RMK A01 T02600193  RH  066%=      5-min Rain = 0
KLE1 030648Z 24004KT 26/19 A2997 RMK A01 T02610193  RH  066%=      5-min Rain = 0
KLE1 030649Z 25004KT 26/19 A2997 RMK A01 T02620193  RH  066%=      5-min Rain = 0
KLE1 030650Z 28004KT 26/19 A2997 RMK A01 T02630193  RH  066%=      5-min Rain = 0
KLE1 030651Z 31004KT 26/19 A2997 RMK A01 T02630194  RH  066%=      5-min Rain = 0
KLE1 030652Z 32006KT 26/19 A2997 RMK A01 T02610193  RH  066%=      5-min Rain = 0
KLE1 030653Z 30006KT 26/19 A2997 RMK A01 T02600193  RH  066%=      5-min Rain = 0
KLE1 030654Z 32005KT 26/19 A2997 RMK A01 T02590193  RH  067%=      5-min Rain = 0
KLE1 030655Z 33006KT 26/19 A2997 RMK A01 T02580192  RH  067%=      5-min Rain = 0
KLE1 030656Z 32006KT 26/19 A2997 RMK A01 T02570192  RH  067%=      5-min Rain = 0
KLE1 030657Z 32006KT 26/19 A2997 RMK A01 T02560191  RH  068%=      5-min Rain = 0
KLE1 030658Z 32007KT 26/19 A2997 RMK A01 T02560191  RH  068%=      5-min Rain = 0
KLE1 030659Z 32006KT 26/19 A2997 RMK A01 T02560191  RH  068%=      5-min Rain = 0
KLE1 030700Z 32005KT 26/19 A2997 RMK A01 T02560191  RH  068%=      5-min Rain = 0
KLE1 030701Z 31004KT 26/19 A2997 RMK A01 T02560192  RH  068%=      5-min Rain = 0
KLE1 030702Z 33005KT 26/19 A2997 RMK A01 T02560191  RH  067%=      5-min Rain = 0
KLE1 030703Z 32005KT 26/19 A2997 RMK A01 T02560191  RH  067%=      5-min Rain = 0
KLE1 030704Z 32003KT 26/19 A2997 RMK A01 T02560190  RH  067%=      5-min Rain = 0
KLE1 030705Z 32004KT 26/19 A2997 RMK A01 T02570190  RH  067%=      5-min Rain = 0
KLE1 030706Z 33003KT 26/19 A2997 RMK A01 T02570191  RH  067%=      5-min Rain = 0
KLE1 030707Z 35003KT 26/19 A2997 RMK A01 T02570190  RH  067%=      5-min Rain = 0
KLE1 030708Z 34004KT 26/19 A2997 RMK A01 T02570191  RH  067%=      5-min Rain = 0
KLE1 030709Z 34004KT 26/19 A2997 RMK A01 T02580191  RH  067%=      5-min Rain = 0
KLE1 030710Z 34003KT 26/19 A2997 RMK A01 T02570191  RH  067%=      5-min Rain = 0
KLE1 030711Z 34003KT 26/19 A2997 RMK A01 T02560191  RH  067%=      5-min Rain = 0
KLE1 030712Z 34004KT 26/19 A2997 RMK A01 T02560191  RH  067%=      5-min Rain = 0
KLE1 030713Z 35005KT 26/19 A2997 RMK A01 T02560191  RH  067%=      5-min Rain = 0
KLE1 030714Z 34006KT 26/19 A2997 RMK A01 T02550191  RH  068%=      5-min Rain = 0
KLE1 030715Z 35005KT 25/19 A2997 RMK A01 T02530191  RH  068%=      5-min Rain = 0
KLE1 030716Z 35006KT 25/19 A2997 RMK A01 T02520191  RH  069%=      5-min Rain = 0
KLE1 030717Z 35005KT 25/19 A2997 RMK A01 T02510191  RH  069%=      5-min Rain = 0
KLE1 030718Z 34005KT 25/19 A2997 RMK A01 T02510191  RH  069%=      5-min Rain = 0
KLE1 030719Z 34005KT 25/19 A2997 RMK A01 T02500191  RH  070%=      5-min Rain = 0
KLE1 030720Z 34004KT 25/19 A2997 RMK A01 T02500191  RH  070%=      5-min Rain = 0
KLE1 030721Z 35004KT 25/19 A2997 RMK A01 T02500190  RH  069%=      5-min Rain = 0
KLE1 030722Z 35004KT 25/19 A2997 RMK A01 T02500190  RH  069%=      5-min Rain = 0
KLE1 030723Z 35004KT 25/19 A2997 RMK A01 T02510190  RH  069%=      5-min Rain = 0
KLE1 030724Z 34004KT 25/19 A2997 RMK A01 T02510191  RH  069%=      5-min Rain = 0
KLE1 030725Z 34004KT 25/19 A2997 RMK A01 T02500191  RH  069%=      5-min Rain = 0
KLE1 030726Z 34004KT 25/19 A2997 RMK A01 T02500191  RH  069%=      5-min Rain = 0
KLE1 030727Z 34004KT 25/19 A2997 RMK A01 T02500190  RH  069%=      5-min Rain = 0
KLE1 030728Z 34005KT 25/19 A2997 RMK A01 T02510190  RH  069%=      5-min Rain = 0
KLE1 030729Z 35005KT 25/19 A2997 RMK A01 T02510190  RH  069%=      5-min Rain = 0
KLE1 030730Z 35004KT 25/19 A2997 RMK A01 T02510190  RH  069%=      5-min Rain = 0
KLE1 030731Z 34004KT 25/19 A2997 RMK A01 T02510190  RH  069%=      5-min Rain = 0
KLE1 030732Z 35006KT 25/19 A2997 RMK A01 T02510190  RH  069%=      5-min Rain = 0
KLE1 030733Z 35006KT 25/19 A2997 RMK A01 T02490190  RH  070%=      5-min Rain = 0
KLE1 030734Z 35006KT 25/19 A2997 RMK A01 T02480190  RH  070%=      5-min Rain = 0
KLE1 030735Z 35006KT 25/19 A2996 RMK A01 T02470190  RH  071%=      5-min Rain = 0
KLE1 030736Z 35007KT 25/19 A2996 RMK A01 T02460190  RH  071%=      5-min Rain = 0
KLE1 030737Z 35007KT 25/19 A2996 RMK A01 T02450190  RH  071%=      5-min Rain = 0
KLE1 030738Z 35007KT 25/19 A2996 RMK A01 T02450190  RH  071%=      5-min Rain = 0
KLE1 030739Z 35007KT 25/19 A2997 RMK A01 T02460190  RH  071%=      5-min Rain = 0
KLE1 030740Z 35007KT 25/19 A2997 RMK A01 T02470190  RH  070%=      5-min Rain = 0
KLE1 030741Z 35007KT 25/19 A2997 RMK A01 T02480190  RH  070%=      5-min Rain = 0
KLE1 030742Z 35007KT 25/19 A2997 RMK A01 T02490190  RH  070%=      5-min Rain = 0
KLE1 030743Z 34007KT 25/19 A2997 RMK A01 T02500190  RH  069%=      5-min Rain = 0
KLE1 030744Z 35006KT 25/19 A2997 RMK A01 T02500190  RH  069%=      5-min Rain = 0
KLE1 030745Z 36006KT 25/19 A2997 RMK A01 T02500190  RH  069%=      5-min Rain = 0
KLE1 030746Z 00006KT 25/19 A2997 RMK A01 T02490190  RH  069%=      5-min Rain = 0
KLE1 030747Z 01005KT 25/19 A2998 RMK A01 T02490190  RH  070%=      5-min Rain = 0
KLE1 030748Z 01005KT 25/19 A2998 RMK A01 T02490190  RH  069%=      5-min Rain = 0
KLE1 030749Z 02005KT 25/19 A2998 RMK A01 T02490189  RH  069%=      5-min Rain = 0
KLE1 030750Z 02005KT 25/19 A2998 RMK A01 T02500189  RH  069%=      5-min Rain = 0
KLE1 030751Z 02005KT 25/19 A2997 RMK A01 T02500190  RH  069%=      5-min Rain = 0
KLE1 030752Z 02005KT 25/19 A2997 RMK A01 T02510189  RH  069%=      5-min Rain = 0
KLE1 030753Z 02004KT 25/19 A2997 RMK A01 T02520190  RH  068%=      5-min Rain = 0
KLE1 030754Z 01004KT 25/19 A2997 RMK A01 T02520190  RH  068%=      5-min Rain = 0
KLE1 030755Z 01003KT 25/19 A2997 RMK A01 T02530190  RH  068%=      5-min Rain = 0
KLE1 030756Z 01003KT 25/19 A2997 RMK A01 T02530190  RH  068%=      5-min Rain = 0
KLE1 030757Z 36003KT 25/19 A2997 RMK A01 T02530190  RH  068%=      5-min Rain = 0
KLE1 030758Z 35003KT 25/19 A2997 RMK A01 T02530189  RH  068%=      5-min Rain = 0
KLE1 030759Z 35003KT 25/19 A2997 RMK A01 T02540189  RH  067%=      5-min Rain = 0
KLE1 030800Z 35004KT 26/19 A2997 RMK A01 T02550189  RH  067%=      5-min Rain = 0
KLE1 030801Z 35004KT 26/19 A2997 RMK A01 T02550189  RH  067%=      5-min Rain = 0
KLE1 030802Z 35004KT 26/19 A2997 RMK A01 T02550189  RH  067%=      5-min Rain = 0
KLE1 030803Z 36004KT 26/19 A2997 RMK A01 T02560189  RH  067%=      5-min Rain = 0
KLE1 030804Z 00004KT 26/19 A2997 RMK A01 T02560190  RH  067%=      5-min Rain = 0
KLE1 030805Z 00004KT 26/19 A2997 RMK A01 T02560190  RH  067%=      5-min Rain = 0
KLE1 030806Z 00004KT 26/19 A2997 RMK A01 T02550190  RH  067%=      5-min Rain = 0
KLE1 030807Z 00004KT 26/19 A2997 RMK A01 T02550190  RH  067%=      5-min Rain = 0
KLE1 030808Z 00004KT 25/19 A2997 RMK A01 T02540190  RH  068%=      5-min Rain = 0
KLE1 030809Z 36004KT 25/19 A2997 RMK A01 T02540191  RH  068%=      5-min Rain = 0
KLE1 030810Z 35004KT 25/19 A2997 RMK A01 T02530190  RH  068%=      5-min Rain = 0
KLE1 030811Z 35004KT 25/19 A2997 RMK A01 T02530191  RH  068%=      5-min Rain = 0
KLE1 030812Z 35004KT 25/19 A2997 RMK A01 T02530190  RH  068%=      5-min Rain = 0
KLE1 030813Z 34004KT 25/19 A2997 RMK A01 T02530190  RH  068%=      5-min Rain = 0
KLE1 030814Z 34004KT 25/19 A2997 RMK A01 T02530190  RH  068%=      5-min Rain = 0
KLE1 030815Z 34004KT 25/19 A2997 RMK A01 T02530190  RH  068%=      5-min Rain = 0
KLE1 030816Z 34004KT 25/19 A2997 RMK A01 T02530191  RH  068%=      5-min Rain = 0
KLE1 030817Z 34004KT 25/19 A2997 RMK A01 T02530191  RH  068%=      5-min Rain = 0
KLE1 030818Z 35004KT 25/19 A2997 RMK A01 T02530191  RH  068%=      5-min Rain = 0
KLE1 030819Z 35004KT 25/19 A2997 RMK A01 T02540190  RH  068%=      5-min Rain = 0
KLE1 030820Z 35003KT 25/19 A2997 RMK A01 T02540190  RH  068%=      5-min Rain = 0
KLE1 030821Z 35003KT 25/19 A2997 RMK A01 T02540189  RH  067%=      5-min Rain = 0
KLE1 030822Z 36003KT 26/19 A2997 RMK A01 T02550189  RH  067%=      5-min Rain = 0
KLE1 030823Z 00003KT 26/19 A2997 RMK A01 T02550189  RH  067%=      5-min Rain = 0
KLE1 030824Z 00003KT 26/19 A2997 RMK A01 T02560189  RH  066%=      5-min Rain = 0
KLE1 030825Z 35003KT 26/19 A2997 RMK A01 T02570189  RH  066%=      5-min Rain = 0
KLE1 030826Z 00003KT 26/19 A2997 RMK A01 T02570189  RH  066%=      5-min Rain = 0
KLE1 030827Z 00003KT 26/19 A2997 RMK A01 T02580189  RH  066%=      5-min Rain = 0
KLE1 030828Z 00003KT 26/19 A2997 RMK A01 T02580189  RH  066%=      5-min Rain = 0
KLE1 030829Z 01003KT 26/19 A2997 RMK A01 T02580189  RH  066%=      5-min Rain = 0
KLE1 030830Z 01003KT 26/19 A2997 RMK A01 T02580189  RH  066%=      5-min Rain = 0
KLE1 030831Z 01003KT 26/19 A2997 RMK A01 T02580190  RH  066%=      5-min Rain = 0
KLE1 030832Z 02003KT 26/19 A2997 RMK A01 T02570190  RH  066%=      5-min Rain = 0
KLE1 030833Z 02003KT 26/19 A2997 RMK A01 T02570190  RH  066%=      5-min Rain = 0
KLE1 030834Z 01002KT 26/19 A2997 RMK A01 T02580189  RH  066%=      5-min Rain = 0
KLE1 030835Z 00002KT 26/19 A2997 RMK A01 T02580189  RH  066%=      5-min Rain = 0
KLE1 030836Z 35002KT 26/19 A2997 RMK A01 T02590190  RH  066%=      5-min Rain = 0
KLE1 030837Z 36002KT 26/19 A2997 RMK A01 T02590189  RH  065%=      5-min Rain = 0
KLE1 030838Z 35002KT 26/19 A2997 RMK A01 T02590190  RH  065%=      5-min Rain = 0
KLE1 030839Z 36002KT 26/19 A2997 RMK A01 T02590190  RH  065%=      5-min Rain = 0
KLE1 030840Z 36002KT 26/19 A2997 RMK A01 T02600191  RH  066%=      5-min Rain = 0
KLE1 030841Z 00002KT 26/19 A2997 RMK A01 T02590190  RH  066%=      5-min Rain = 0
KLE1 030842Z 01002KT 26/19 A2997 RMK A01 T02580189  RH  066%=      5-min Rain = 0
KLE1 030843Z 02001KT 26/19 A2997 RMK A01 T02580190  RH  066%=      5-min Rain = 0
KLE1 030844Z 05001KT 26/19 A2997 RMK A01 T02580189  RH  066%=      5-min Rain = 0
KLE1 030845Z 05002KT 26/19 A2997 RMK A01 T02580189  RH  066%=      5-min Rain = 0
KLE1 030846Z 05003KT 26/19 A2997 RMK A01 T02580190  RH  066%=      5-min Rain = 0
KLE1 030847Z 07004KT 26/19 A2997 RMK A01 T02570191  RH  067%=      5-min Rain = 0
KLE1 030848Z 07004KT 26/19 A2997 RMK A01 T02560192  RH  068%=      5-min Rain = 0
KLE1 030849Z 07004KT 25/19 A2997 RMK A01 T02540192  RH  068%=      5-min Rain = 0
KLE1 030850Z 07004KT 25/19 A2997 RMK A01 T02530192  RH  069%=      5-min Rain = 0
KLE1 030851Z 07005KT 25/19 A2997 RMK A01 T02510192  RH  070%=      5-min Rain = 0
KLE1 030852Z 08005KT 25/19 A2998 RMK A01 T02500192  RH  070%=      5-min Rain = 0
KLE1 030853Z 08005KT 25/19 A2998 RMK A01 T02480192  RH  071%=      5-min Rain = 0
KLE1 030854Z 08005KT 25/19 A2998 RMK A01 T02470191  RH  071%=      5-min Rain = 0
KLE1 030855Z 08005KT 25/19 A2998 RMK A01 T02460191  RH  071%=      5-min Rain = 0
KLE1 030856Z 08006KT 25/19 A2998 RMK A01 T02460191  RH  072%=      5-min Rain = 0
KLE1 030857Z 08006KT 25/19 A2998 RMK A01 T02460191  RH  072%=      5-min Rain = 0
KLE1 030858Z 08006KT 25/19 A2998 RMK A01 T02450191  RH  072%=      5-min Rain = 0
KLE1 030859Z 09006KT 25/19 A2998 RMK A01 T02460191  RH  072%=      5-min Rain = 0
KLE1 030900Z 09006KT 25/19 A2998 RMK A01 T02450191  RH  072%=      5-min Rain = 0
KLE1 030901Z 09005KT 25/19 A2998 RMK A01 T02460191  RH  071%=      5-min Rain = 0
KLE1 030902Z 09005KT 25/19 A2998 RMK A01 T02460191  RH  071%=      5-min Rain = 0
KLE1 030903Z 09004KT 25/19 A2998 RMK A01 T02460191  RH  071%=      5-min Rain = 0
KLE1 030904Z 08004KT 25/19 A2998 RMK A01 T02470191  RH  071%=      5-min Rain = 0
KLE1 030905Z 08004KT 25/19 A2998 RMK A01 T02460191  RH  071%=      5-min Rain = 0
KLE1 030906Z 07004KT 25/19 A2998 RMK A01 T02460191  RH  071%=      5-min Rain = 0
KLE1 030907Z 07005KT 25/19 A2998 RMK A01 T02460191  RH  071%=      5-min Rain = 0
KLE1 030908Z 06005KT 25/19 A2998 RMK A01 T02470191  RH  071%=      5-min Rain = 0
KLE1 030909Z 06005KT 25/19 A2998 RMK A01 T02470192  RH  071%=      5-min Rain = 0
KLE1 030910Z 06005KT 25/19 A2998 RMK A01 T02460192  RH  072%=      5-min Rain = 0
KLE1 030911Z 05005KT 25/19 A2999 RMK A01 T02460192  RH  072%=      5-min Rain = 0
KLE1 030912Z 05005KT 25/19 A2999 RMK A01 T02460192  RH  072%=      5-min Rain = 0
KLE1 030913Z 05005KT 25/19 A2999 RMK A01 T02460192  RH  072%=      5-min Rain = 0
KLE1 030914Z 05005KT 25/19 A2999 RMK A01 T02460192  RH  072%=      5-min Rain = 0
KLE1 030915Z 05005KT 25/19 A2999 RMK A01 T02450192  RH  072%=      5-min Rain = 0
KLE1 030916Z 05005KT 25/19 A2999 RMK A01 T02460192  RH  072%=      5-min Rain = 0
KLE1 030917Z 05005KT 25/19 A2999 RMK A01 T02460192  RH  072%=      5-min Rain = 0
KLE1 030918Z 05005KT 25/19 A2999 RMK A01 T02460192  RH  072%=      5-min Rain = 0
KLE1 030919Z 04005KT 25/19 A2999 RMK A01 T02470192  RH  072%=      5-min Rain = 0
KLE1 030920Z 04005KT 25/19 A2998 RMK A01 T02470192  RH  071%=      5-min Rain = 0
KLE1 030921Z 04004KT 25/19 A2998 RMK A01 T02470192  RH  071%=      5-min Rain = 0
KLE1 030922Z 05005KT 25/19 A2998 RMK A01 T02470192  RH  071%=      5-min Rain = 0
KLE1 030923Z 05005KT 25/19 A2998 RMK A01 T02470192  RH  072%=      5-min Rain = 0
KLE1 030924Z 06004KT 25/19 A2998 RMK A01 T02460192  RH  072%=      5-min Rain = 0
KLE1 030925Z 06003KT 25/19 A2998 RMK A01 T02450192  RH  072%=      5-min Rain = 0
KLE1 030926Z 07003KT 25/19 A2998 RMK A01 T02450192  RH  072%=      5-min Rain = 0
KLE1 030927Z 07003KT 25/19 A2998 RMK A01 T02450192  RH  072%=      5-min Rain = 0
KLE1 030928Z 07003KT 25/19 A2998 RMK A01 T02450192  RH  072%=      5-min Rain = 0
KLE1 030929Z 07004KT 25/19 A2998 RMK A01 T02460192  RH  072%=      5-min Rain = 0
KLE1 030930Z 07004KT 25/19 A2998 RMK A01 T02480192  RH  071%=      5-min Rain = 0
KLE1 030931Z 07004KT 25/19 A2998 RMK A01 T02500193  RH  071%=      5-min Rain = 0
KLE1 030932Z 07005KT 25/19 A2998 RMK A01 T02500193  RH  070%=      5-min Rain = 0
KLE1 030933Z 07005KT 25/19 A2998 RMK A01 T02510193  RH  070%=      5-min Rain = 0
KLE1 030934Z 07005KT 25/19 A2998 RMK A01 T02510193  RH  070%=      5-min Rain = 0
KLE1 030935Z 07005KT 25/19 A2998 RMK A01 T02510193  RH  070%=      5-min Rain = 0
KLE1 030936Z 07004KT 25/19 A2998 RMK A01 T02500192  RH  070%=      5-min Rain = 0
KLE1 030937Z 07005KT 25/19 A2998 RMK A01 T02500192  RH  070%=      5-min Rain = 0
KLE1 030938Z 07005KT 25/19 A2998 RMK A01 T02500193  RH  070%=      5-min Rain = 0
KLE1 030939Z 07005KT 25/19 A2998 RMK A01 T02490192  RH  071%=      5-min Rain = 0
KLE1 030940Z 08005KT 25/19 A2998 RMK A01 T02490192  RH  071%=      5-min Rain = 0
KLE1 030941Z 08005KT 25/19 A2998 RMK A01 T02490193  RH  071%=      5-min Rain = 0
KLE1 030942Z 08005KT 25/19 A2999 RMK A01 T02480193  RH  071%=      5-min Rain = 0
KLE1 030943Z 08005KT 25/19 A2999 RMK A01 T02480193  RH  071%=      5-min Rain = 0
KLE1 030944Z 08005KT 25/19 A2999 RMK A01 T02470192  RH  071%=      5-min Rain = 0
KLE1 030945Z 08005KT 25/19 A2999 RMK A01 T02470192  RH  072%=      5-min Rain = 0
KLE1 030946Z 08005KT 25/19 A2999 RMK A01 T02470193  RH  072%=      5-min Rain = 0
KLE1 030947Z 08005KT 25/19 A2999 RMK A01 T02460193  RH  072%=      5-min Rain = 0
KLE1 030948Z 08005KT 25/19 A2999 RMK A01 T02460193  RH  072%=      5-min Rain = 0
KLE1 030949Z 08005KT 25/19 A2999 RMK A01 T02470193  RH  072%=      5-min Rain = 0
KLE1 030950Z 08005KT 25/19 A2999 RMK A01 T02470193  RH  072%=      5-min Rain = 0
KLE1 030951Z 07005KT 25/19 A2999 RMK A01 T02470193  RH  072%=      5-min Rain = 0
KLE1 030952Z 07005KT 25/19 A2999 RMK A01 T02480193  RH  072%=      5-min Rain = 0
KLE1 030953Z 07005KT 25/19 A2999 RMK A01 T02480193  RH  072%=      5-min Rain = 0
KLE1 030954Z 07005KT 25/19 A2999 RMK A01 T02480193  RH  071%=      5-min Rain = 0
KLE1 030955Z 06005KT 25/19 A2999 RMK A01 T02480193  RH  072%=      5-min Rain = 0
KLE1 030956Z 06005KT 25/19 A2999 RMK A01 T02480193  RH  072%=      5-min Rain = 0
KLE1 030957Z 06005KT 25/19 A30 RMK A01 T02470193  RH  072%=      5-min Rain = 0
KLE1 030958Z 05005KT 25/19 A30 RMK A01 T02470193  RH  072%=      5-min Rain = 0
KLE1 030959Z 05005KT 25/19 A30 RMK A01 T02470194  RH  072%=      5-min Rain = 0
KLE1 031000Z 05005KT 25/19 A30 RMK A01 T02460194  RH  073%=      5-min Rain = 0
KLE1 031001Z 05004KT 25/19 A30 RMK A01 T02460194  RH  073%=      5-min Rain = 0
KLE1 031002Z 05005KT 25/19 A30 RMK A01 T02460194  RH  073%=      5-min Rain = 0
KLE1 031003Z 05005KT 25/19 A30 RMK A01 T02460194  RH  073%=      5-min Rain = 0
KLE1 031004Z 05005KT 25/19 A30 RMK A01 T02460194  RH  073%=      5-min Rain = 0
KLE1 031005Z 05005KT 25/19 A30 RMK A01 T02450194  RH  073%=      5-min Rain = 0
KLE1 031006Z 05005KT 24/19 A30 RMK A01 T02440194  RH  074%=      5-min Rain = 0
KLE1 031007Z 05005KT 24/19 A30 RMK A01 T02430194  RH  074%=      5-min Rain = 0
KLE1 031008Z 06005KT 24/19 A30 RMK A01 T02420194  RH  074%=      5-min Rain = 0
KLE1 031009Z 06005KT 24/20 A30 RMK A01 T02430195  RH  075%=      5-min Rain = 0
KLE1 031010Z 06005KT 24/19 A30 RMK A01 T02420194  RH  075%=      5-min Rain = 0
KLE1 031011Z 06005KT 24/20 A30 RMK A01 T02420195  RH  075%=      5-min Rain = 0
KLE1 031012Z 06005KT 24/20 A30 RMK A01 T02420195  RH  075%=      5-min Rain = 0
KLE1 031013Z 06005KT 24/20 A30 RMK A01 T02420195  RH  075%=      5-min Rain = 0
KLE1 031014Z 06005KT 24/20 A30 RMK A01 T02420195  RH  075%=      5-min Rain = 0
KLE1 031015Z 06005KT 24/20 A30 RMK A01 T02420195  RH  075%=      5-min Rain = 0
KLE1 031016Z 06005KT 24/20 A30 RMK A01 T02420195  RH  075%=      5-min Rain = 0
KLE1 031017Z 06005KT 24/20 A30 RMK A01 T02430195  RH  075%=      5-min Rain = 0
KLE1 031018Z 06005KT 24/20 A30 RMK A01 T02430195  RH  075%=      5-min Rain = 0
KLE1 031019Z 06006KT 24/20 A30 RMK A01 T02420195  RH  075%=      5-min Rain = 0
KLE1 031020Z 07006KT 24/20 A30 RMK A01 T02420196  RH  075%=      5-min Rain = 0
KLE1 031021Z 07006KT 24/20 A30 RMK A01 T02410196  RH  076%=      5-min Rain = 0
KLE1 031022Z 07006KT 24/20 A30 RMK A01 T02410196  RH  076%=      5-min Rain = 0
KLE1 031023Z 07007KT 24/20 A30 RMK A01 T02410196  RH  076%=      5-min Rain = 0
KLE1 031024Z 07006KT 24/20 A30 RMK A01 T02410196  RH  076%=      5-min Rain = 0
KLE1 031025Z 07006KT 24/20 A30 RMK A01 T02400196  RH  076%=      5-min Rain = 0
KLE1 031026Z 07006KT 24/20 A30 RMK A01 T02400196  RH  076%=      5-min Rain = 0
KLE1 031027Z 07006KT 24/20 A30 RMK A01 T02400196  RH  076%=      5-min Rain = 0
KLE1 031028Z 07006KT 24/20 A30 RMK A01 T02390195  RH  077%=      5-min Rain = 0
KLE1 031029Z 07006KT 24/20 A30 RMK A01 T02390196  RH  077%=      5-min Rain = 0
KLE1 031030Z 07006KT 24/20 A30 RMK A01 T02390196  RH  077%=      5-min Rain = 0
KLE1 031031Z 07006KT 24/20 A30 RMK A01 T02390196  RH  077%=      5-min Rain = 0
KLE1 031032Z 07006KT 24/20 A30 RMK A01 T02390196  RH  077%=      5-min Rain = 0
KLE1 031033Z 07006KT 24/20 A30 RMK A01 T02380197  RH  077%=      5-min Rain = 0
KLE1 031034Z 07006KT 24/20 A30 RMK A01 T02380197  RH  077%=      5-min Rain = 0
KLE1 031035Z 07006KT 24/20 A30 RMK A01 T02380197  RH  078%=      5-min Rain = 0
KLE1 031036Z 07006KT 24/20 A30 RMK A01 T02380197  RH  078%=      5-min Rain = 0
KLE1 031037Z 07007KT 24/20 A30 RMK A01 T02380197  RH  078%=      5-min Rain = 0
KLE1 031038Z 07007KT 24/20 A30 RMK A01 T02380197  RH  078%=      5-min Rain = 0
KLE1 031039Z 07007KT 24/20 A30 RMK A01 T02390198  RH  078%=      5-min Rain = 0
KLE1 031040Z 06007KT 24/20 A30 RMK A01 T02390198  RH  078%=      5-min Rain = 0
KLE1 031041Z 06006KT 24/20 A30 RMK A01 T02390198  RH  078%=      5-min Rain = 0
KLE1 031042Z 06006KT 24/20 A30 RMK A01 T02390198  RH  078%=      5-min Rain = 0
KLE1 031043Z 06007KT 24/20 A30 RMK A01 T02390198  RH  078%=      5-min Rain = 0
KLE1 031044Z 06006KT 24/20 A30 RMK A01 T02390198  RH  078%=      5-min Rain = 0
KLE1 031045Z 06007KT 24/20 A30 RMK A01 T02390198  RH  078%=      5-min Rain = 0
KLE1 031046Z 06006KT 24/20 A3001 RMK A01 T02390198  RH  078%=      5-min Rain = 0
KLE1 031047Z 06007KT 24/20 A3001 RMK A01 T02390198  RH  078%=      5-min Rain = 0
KLE1 031048Z 06007KT 24/20 A3001 RMK A01 T02390199  RH  078%=      5-min Rain = 0
KLE1 031049Z 07007KT 24/20 A3001 RMK A01 T02390198  RH  078%=      5-min Rain = 0
KLE1 031050Z 07007KT 24/20 A3001 RMK A01 T02390198  RH  078%=      5-min Rain = 0
KLE1 031051Z 07007KT 24/20 A3001 RMK A01 T02390199  RH  078%=      5-min Rain = 0
KLE1 031052Z 07007KT 24/20 A3001 RMK A01 T02390199  RH  078%=      5-min Rain = 0
KLE1 031053Z 07008KT 24/20 A3001 RMK A01 T02390199  RH  078%=      5-min Rain = 0
KLE1 031054Z 07008KT 24/20 A3001 RMK A01 T02380198  RH  078%=      5-min Rain = 0
KLE1 031055Z 07008KT 24/20 A3001 RMK A01 T02380199  RH  078%=      5-min Rain = 0
KLE1 031056Z 06008KT 24/20 A3001 RMK A01 T02380199  RH  078%=      5-min Rain = 0
KLE1 031057Z 06008KT 24/20 A3001 RMK A01 T02380199  RH  078%=      5-min Rain = 0
KLE1 031058Z 06008KT 24/20 A3001 RMK A01 T02380199  RH  078%=      5-min Rain = 0
KLE1 031059Z 06008KT 24/20 A3001 RMK A01 T02390199  RH  078%=      5-min Rain = 0
KLE1 031100Z 06008KT 24/20 A3001 RMK A01 T02400199  RH  078%=      5-min Rain = 0
KLE1 031101Z 06007KT 24/20 A3001 RMK A01 T02400199  RH  078%=      5-min Rain = 0
KLE1 031102Z 06008KT 24/20 A3001 RMK A01 T02400199  RH  078%=      5-min Rain = 0
KLE1 031103Z 06008KT 24/20 A3001 RMK A01 T02400199  RH  078%=      5-min Rain = 0
KLE1 031104Z 07008KT 24/20 A3001 RMK A01 T02410199  RH  078%=      5-min Rain = 0
KLE1 031105Z 07009KT 24/20 A3001 RMK A01 T02410199  RH  078%=      5-min Rain = 0
KLE1 031106Z 07009KT 24/20 A3001 RMK A01 T02410200  RH  078%=      5-min Rain = 0
KLE1 031107Z 07009KT 24/20 A3001 RMK A01 T02410200  RH  078%=      5-min Rain = 0
KLE1 031108Z 07009KT 24/20 A3001 RMK A01 T02410200  RH  078%=      5-min Rain = 0
KLE1 031109Z 07009KT 24/20 A3001 RMK A01 T02410200  RH  078%=      5-min Rain = 0
KLE1 031110Z 08009KT 24/20 A3001 RMK A01 T02410200  RH  078%=      5-min Rain = 0
KLE1 031111Z 07008KT 24/20 A3001 RMK A01 T02410201  RH  078%=      5-min Rain = 0
KLE1 031112Z 08009KT 24/20 A3001 RMK A01 T02410201  RH  078%=      5-min Rain = 0
KLE1 031113Z 08009KT 24/20 A3001 RMK A01 T02410201  RH  078%=      5-min Rain = 0
KLE1 031114Z 08009KT 24/20 A3001 RMK A01 T02410201  RH  079%=      5-min Rain = 0
KLE1 031115Z 08010KT 24/20 A3001 RMK A01 T02400201  RH  079%=      5-min Rain = 0
KLE1 031116Z 08008KT 24/20 A3001 RMK A01 T02400202  RH  079%=      5-min Rain = 0
KLE1 031117Z 08009KT 24/20 A3001 RMK A01 T02400201  RH  079%=      5-min Rain = 0
KLE1 031118Z 08008KT 24/20 A3001 RMK A01 T02390201  RH  079%=      5-min Rain = 0
KLE1 031119Z 07008KT 24/20 A3001 RMK A01 T02390202  RH  080%=      5-min Rain = 0
KLE1 031120Z 07008KT 24/20 A3001 RMK A01 T02390202  RH  080%=      5-min Rain = 0
KLE1 031121Z 07008KT 24/20 A3001 RMK A01 T02390202  RH  080%=      5-min Rain = 0
KLE1 031122Z 07009KT 24/20 A3001 RMK A01 T02390202  RH  080%=      5-min Rain = 0
KLE1 031123Z 08008KT 24/20 A3001 RMK A01 T02390203  RH  080%=      5-min Rain = 0
KLE1 031124Z 08008KT 24/20 A3001 RMK A01 T02380202  RH  080%=      5-min Rain = 0
KLE1 031125Z 08008KT 24/20 A3001 RMK A01 T02380202  RH  080%=      5-min Rain = 0
KLE1 031126Z 08009KT 24/20 A3001 RMK A01 T02380202  RH  080%=      5-min Rain = 0
KLE1 031127Z 08009KT 24/20 A3001 RMK A01 T02380202  RH  080%=      5-min Rain = 0
KLE1 031128Z 08009KT 24/20 A3001 RMK A01 T02380203  RH  080%=      5-min Rain = 0
KLE1 031129Z 08009KT 24/20 A3001 RMK A01 T02380203  RH  080%=      5-min Rain = 0
KLE1 031130Z 08007KT 24/20 A3001 RMK A01 T02380203  RH  080%=      5-min Rain = 0
KLE1 031131Z 08009KT 24/20 A3001 RMK A01 T02380203  RH  080%=      5-min Rain = 0
KLE1 031132Z 08009KT 24/20 A3001 RMK A01 T02380203  RH  081%=      5-min Rain = 0
KLE1 031133Z 08009KT 24/20 A3001 RMK A01 T02380203  RH  080%=      5-min Rain = 0
KLE1 031134Z 08008KT 24/20 A3001 RMK A01 T02380203  RH  080%=      5-min Rain = 0
KLE1 031135Z 08008KT 24/20 A3001 RMK A01 T02390203  RH  080%=      5-min Rain = 0
KLE1 031136Z 09008KT 24/20 A3002 RMK A01 T02380203  RH  080%=      5-min Rain = 0
KLE1 031137Z 09008KT 24/20 A3002 RMK A01 T02380203  RH  080%=      5-min Rain = 0
KLE1 031138Z 09008KT 24/20 A3002 RMK A01 T02380203  RH  081%=      5-min Rain = 0
KLE1 031139Z 09008KT 24/20 A3002 RMK A01 T02380203  RH  081%=      5-min Rain = 0
KLE1 031140Z 09008KT 24/20 A3002 RMK A01 T02370202  RH  081%=      5-min Rain = 0
KLE1 031141Z 09007KT 24/20 A3002 RMK A01 T02370202  RH  081%=      5-min Rain = 0
KLE1 031142Z 09008KT 24/20 A3002 RMK A01 T02370202  RH  081%=      5-min Rain = 0
KLE1 031143Z 09009KT 24/20 A3002 RMK A01 T02370202  RH  081%=      5-min Rain = 0
KLE1 031144Z 09008KT 24/20 A3002 RMK A01 T02370202  RH  081%=      5-min Rain = 0
KLE1 031145Z 09008KT 24/20 A3002 RMK A01 T02370202  RH  081%=      5-min Rain = 0
KLE1 031146Z 09009KT 24/20 A3002 RMK A01 T02370202  RH  081%=      5-min Rain = 0
KLE1 031147Z 09008KT 24/20 A3002 RMK A01 T02380202  RH  081%=      5-min Rain = 0
KLE1 031148Z 09008KT 24/20 A3002 RMK A01 T02370202  RH  081%=      5-min Rain = 0
KLE1 031149Z 09007KT 24/20 A3002 RMK A01 T02370202  RH  081%=      5-min Rain = 0
KLE1 031150Z 09008KT 24/20 A3002 RMK A01 T02380203  RH  081%=      5-min Rain = 0
KLE1 031151Z 09008KT 24/20 A3002 RMK A01 T02370202  RH  081%=      5-min Rain = 0
KLE1 031152Z 09007KT 24/20 A3002 RMK A01 T02370202  RH  081%=      5-min Rain = 0
KLE1 031153Z 09008KT 24/20 A3002 RMK A01 T02370202  RH  081%=      5-min Rain = 0
KLE1 031154Z 09008KT 24/20 A3002 RMK A01 T02370203  RH  081%=      5-min Rain = 0
KLE1 031155Z 09008KT 24/20 A3002 RMK A01 T02370202  RH  081%=      5-min Rain = 0
KLE1 031156Z 09007KT 24/20 A3002 RMK A01 T02380203  RH  081%=      5-min Rain = 0
KLE1 031157Z 09006KT 24/20 A3002 RMK A01 T02380203  RH  081%=      5-min Rain = 0
KLE1 031158Z 09007KT 24/20 A3002 RMK A01 T02370202  RH  081%=      5-min Rain = 0
KLE1 031159Z 08006KT 24/20 A3002 RMK A01 T02370202  RH  081%=      5-min Rain = 0
KLE1 031200Z 08007KT 24/20 A3002 RMK A01 T02370202  RH  081%=      5-min Rain = 0
KLE1 031201Z 08006KT 24/20 A3002 RMK A01 T02370202  RH  081%=      5-min Rain = 0
KLE1 031202Z 08007KT 24/20 A3002 RMK A01 T02360202  RH  081%=      5-min Rain = 0
KLE1 031203Z 08007KT 24/20 A3002 RMK A01 T02360202  RH  081%=      5-min Rain = 0
KLE1 031204Z 08007KT 24/20 A3002 RMK A01 T02360202  RH  081%=      5-min Rain = 0
KLE1 031205Z 09006KT 24/20 A3002 RMK A01 T02370202  RH  081%=      5-min Rain = 0
KLE1 031206Z 09006KT 24/20 A3002 RMK A01 T02370202  RH  081%=      5-min Rain = 0
KLE1 031207Z 09006KT 24/20 A3002 RMK A01 T02370202  RH  081%=      5-min Rain = 0
KLE1 031208Z 09006KT 24/20 A3002 RMK A01 T02370202  RH  081%=      5-min Rain = 0
KLE1 031209Z 09006KT 24/20 A3002 RMK A01 T02370202  RH  081%=      5-min Rain = 0
KLE1 031210Z 09007KT 24/20 A3002 RMK A01 T02370202  RH  081%=      5-min Rain = 0
KLE1 031211Z 08006KT 24/20 A3002 RMK A01 T02370202  RH  081%=      5-min Rain = 0
KLE1 031212Z 08006KT 24/20 A3002 RMK A01 T02370202  RH  081%=      5-min Rain = 0
KLE1 031213Z 08006KT 24/20 A3002 RMK A01 T02380202  RH  081%=      5-min Rain = 0
KLE1 031214Z 08006KT 24/20 A3002 RMK A01 T02380202  RH  080%=      5-min Rain = 0
KLE1 031215Z 08006KT 24/20 A3002 RMK A01 T02380202  RH  080%=      5-min Rain = 0
KLE1 031216Z 08006KT 24/20 A3002 RMK A01 T02380202  RH  080%=      5-min Rain = 0
KLE1 031217Z 08006KT 24/20 A3002 RMK A01 T02380202  RH  080%=      5-min Rain = 0
KLE1 031218Z 09006KT 24/20 A3002 RMK A01 T02390203  RH  080%=      5-min Rain = 0
KLE1 031219Z 09007KT 24/20 A3003 RMK A01 T02390202  RH  080%=      5-min Rain = 0
KLE1 031220Z 09006KT 24/20 A3003 RMK A01 T02390202  RH  080%=      5-min Rain = 0
KLE1 031221Z 09006KT 24/20 A3003 RMK A01 T02390203  RH  080%=      5-min Rain = 0
KLE1 031222Z 09006KT 24/20 A3003 RMK A01 T02390202  RH  080%=      5-min Rain = 0
KLE1 031223Z 09006KT 24/20 A3003 RMK A01 T02400203  RH  080%=      5-min Rain = 0
KLE1 031224Z 09007KT 24/20 A3003 RMK A01 T02400202  RH  080%=      5-min Rain = 0
KLE1 031225Z 09008KT 24/20 A3003 RMK A01 T02400202  RH  079%=      5-min Rain = 0
KLE1 031226Z 09008KT 24/20 A3003 RMK A01 T02410202  RH  079%=      5-min Rain = 0
KLE1 031227Z 08008KT 24/20 A3003 RMK A01 T02410202  RH  079%=      5-min Rain = 0
KLE1 031228Z 08008KT 24/20 A3003 RMK A01 T02410202  RH  079%=      5-min Rain = 0
KLE1 031229Z 08007KT 24/20 A3003 RMK A01 T02420202  RH  079%=      5-min Rain = 0
KLE1 031230Z 08007KT 24/20 A3003 RMK A01 T02420202  RH  078%=      5-min Rain = 0
KLE1 031231Z 08007KT 24/20 A3003 RMK A01 T02420202  RH  078%=      5-min Rain = 0
KLE1 031232Z 08008KT 24/20 A3003 RMK A01 T02430203  RH  078%=      5-min Rain = 0
KLE1 031233Z 08007KT 24/20 A3003 RMK A01 T02430202  RH  078%=      5-min Rain = 0
KLE1 031234Z 08007KT 24/20 A3003 RMK A01 T02440203  RH  078%=      5-min Rain = 0
KLE1 031235Z 08007KT 25/20 A3003 RMK A01 T02450203  RH  078%=      5-min Rain = 0
KLE1 031236Z 08007KT 25/20 A3003 RMK A01 T02450203  RH  077%=      5-min Rain = 0
KLE1 031237Z 09008KT 25/20 A3003 RMK A01 T02450203  RH  077%=      5-min Rain = 0
KLE1 031238Z 09007KT 25/20 A3003 RMK A01 T02460202  RH  077%=      5-min Rain = 0
KLE1 031239Z 09008KT 25/20 A3003 RMK A01 T02460202  RH  077%=      5-min Rain = 0
KLE1 031240Z 09008KT 25/20 A3003 RMK A01 T02460202  RH  076%=      5-min Rain = 0
KLE1 031241Z 09008KT 25/20 A3003 RMK A01 T02460202  RH  076%=      5-min Rain = 0
KLE1 031242Z 10008KT 25/20 A3003 RMK A01 T02460201  RH  076%=      5-min Rain = 0
KLE1 031243Z 10008KT 25/20 A3003 RMK A01 T02460201  RH  076%=      5-min Rain = 0
KLE1 031244Z 09008KT 25/20 A3003 RMK A01 T02470201  RH  076%=      5-min Rain = 0
KLE1 031245Z 10008KT 25/20 A3003 RMK A01 T02470202  RH  076%=      5-min Rain = 0
KLE1 031246Z 10009KT 25/20 A3003 RMK A01 T02470202  RH  076%=      5-min Rain = 0
KLE1 031247Z 11009KT 25/20 A3003 RMK A01 T02470201  RH  075%=      5-min Rain = 0
KLE1 031248Z 10008KT 25/20 A3003 RMK A01 T02470202  RH  076%=      5-min Rain = 0
KLE1 031249Z 10008KT 25/20 A3003 RMK A01 T02480203  RH  076%=      5-min Rain = 0
KLE1 031250Z 10010KT 25/20 A3003 RMK A01 T02490202  RH  075%=      5-min Rain = 0
KLE1 031251Z 10009KT 25/20 A3003 RMK A01 T02490202  RH  075%=      5-min Rain = 0
KLE1 031252Z 10009KT 25/20 A3003 RMK A01 T02490202  RH  075%=      5-min Rain = 0
KLE1 031253Z 10008KT 25/20 A3003 RMK A01 T02490202  RH  075%=      5-min Rain = 0
KLE1 031254Z 10007KT 25/20 A3003 RMK A01 T02490202  RH  075%=      5-min Rain = 0
KLE1 031255Z 10008KT 25/20 A3003 RMK A01 T02490202  RH  075%=      5-min Rain = 0
KLE1 031256Z 10009KT 25/20 A3003 RMK A01 T02500203  RH  075%=      5-min Rain = 0
KLE1 031257Z 11008KT 25/20 A3003 RMK A01 T02500202  RH  075%=      5-min Rain = 0
KLE1 031258Z 10007KT 25/20 A3003 RMK A01 T02500202  RH  075%=      5-min Rain = 0
KLE1 031259Z 10008KT 25/20 A3003 RMK A01 T02500203  RH  075%=      5-min Rain = 0
KLE1 031300Z 11009KT 25/20 A3003 RMK A01 T02510202  RH  074%=      5-min Rain = 0
KLE1 031301Z 11009KT 25/20 A3003 RMK A01 T02510202  RH  074%=      5-min Rain = 0
KLE1 031302Z 11009KT 25/20 A3003 RMK A01 T02510202  RH  075%=      5-min Rain = 0
KLE1 031303Z 10009KT 25/20 A3004 RMK A01 T02510203  RH  075%=      5-min Rain = 0
KLE1 031304Z 11008KT 25/20 A3004 RMK A01 T02510203  RH  074%=      5-min Rain = 0
KLE1 031305Z 10008KT 25/20 A3004 RMK A01 T02520203  RH  074%=      5-min Rain = 0
KLE1 031306Z 10009KT 25/20 A3004 RMK A01 T02520203  RH  074%=      5-min Rain = 0
KLE1 031307Z 10009KT 25/20 A3004 RMK A01 T02520203  RH  074%=      5-min Rain = 0
KLE1 031308Z 11008KT 25/20 A3004 RMK A01 T02520203  RH  074%=      5-min Rain = 0
KLE1 031309Z 10008KT 25/20 A3004 RMK A01 T02530203  RH  074%=      5-min Rain = 0
KLE1 031310Z 11007KT 25/20 A3004 RMK A01 T02540204  RH  074%=      5-min Rain = 0
KLE1 031311Z 11007KT 26/21 A3004 RMK A01 T02550205  RH  074%=      5-min Rain = 0
KLE1 031312Z 11008KT 26/20 A3004 RMK A01 T02570204  RH  073%=      5-min Rain = 0
KLE1 031313Z 11008KT 26/20 A3004 RMK A01 T02570203  RH  072%=      5-min Rain = 0
KLE1 031314Z 12007KT 26/20 A3004 RMK A01 T02560204  RH  073%=      5-min Rain = 0
KLE1 031315Z 11008KT 26/20 A3004 RMK A01 T02560204  RH  073%=      5-min Rain = 0
KLE1 031316Z 11007KT 26/20 A3004 RMK A01 T02560204  RH  073%=      5-min Rain = 0
KLE1 031317Z 11006KT 26/21 A3004 RMK A01 T02570205  RH  073%=      5-min Rain = 0
KLE1 031318Z 13007KT 26/20 A3004 RMK A01 T02580204  RH  072%=      5-min Rain = 0
KLE1 031319Z 12007KT 26/20 A3004 RMK A01 T02570204  RH  072%=      5-min Rain = 0
KLE1 031320Z 13006KT 26/21 A3004 RMK A01 T02580205  RH  072%=      5-min Rain = 0
KLE1 031321Z 13006KT 26/21 A3004 RMK A01 T02590206  RH  073%=      5-min Rain = 0
KLE1 031322Z 13007KT 26/21 A3004 RMK A01 T02600206  RH  072%=      5-min Rain = 0
KLE1 031323Z 12007KT 26/21 A3004 RMK A01 T02600205  RH  071%=      5-min Rain = 0
KLE1 031324Z 13008KT 26/21 A3004 RMK A01 T02600205  RH  071%=      5-min Rain = 0
KLE1 031325Z 13006KT 26/21 A3004 RMK A01 T02600205  RH  072%=      5-min Rain = 0
KLE1 031326Z 13006KT 26/21 A3004 RMK A01 T02600206  RH  072%=      5-min Rain = 0
KLE1 031327Z 13007KT 26/20 A3004 RMK A01 T02600204  RH  071%=      5-min Rain = 0
KLE1 031328Z 13006KT 26/21 A3004 RMK A01 T02600205  RH  071%=      5-min Rain = 0
KLE1 031329Z 11006KT 26/21 A3004 RMK A01 T02610207  RH  072%=      5-min Rain = 0
KLE1 031330Z 11007KT 26/21 A3004 RMK A01 T02620206  RH  071%=      5-min Rain = 0
KLE1 031331Z 10007KT 26/21 A3004 RMK A01 T02620205  RH  071%=      5-min Rain = 0
KLE1 031332Z 11007KT 26/21 A3004 RMK A01 T02620205  RH  071%=      5-min Rain = 0
KLE1 031333Z 10007KT 26/21 A3004 RMK A01 T02620206  RH  071%=      5-min Rain = 0
KLE1 031334Z 09006KT 26/20 A3004 RMK A01 T02610204  RH  071%=      5-min Rain = 0
KLE1 031335Z 09007KT 26/21 A3004 RMK A01 T02610205  RH  071%=      5-min Rain = 0
KLE1 031336Z 10006KT 26/21 A3004 RMK A01 T02620206  RH  071%=      5-min Rain = 0
KLE1 031337Z 08006KT 26/21 A3004 RMK A01 T02630206  RH  071%=      5-min Rain = 0
KLE1 031338Z 09007KT 26/21 A3004 RMK A01 T02640206  RH  070%=      5-min Rain = 0
KLE1 031339Z 09007KT 27/21 A3004 RMK A01 T02650206  RH  070%=      5-min Rain = 0
KLE1 031340Z 08007KT 27/21 A3004 RMK A01 T02650206  RH  070%=      5-min Rain = 0
KLE1 031341Z 09005KT 27/21 A3004 RMK A01 T02660205  RH  069%=      5-min Rain = 0
KLE1 031342Z 08007KT 27/21 A3004 RMK A01 T02660206  RH  070%=      5-min Rain = 0
KLE1 031343Z 08006KT 27/21 A3004 RMK A01 T02660205  RH  069%=      5-min Rain = 0
KLE1 031344Z 09006KT 27/21 A3004 RMK A01 T02660205  RH  069%=      5-min Rain = 0
KLE1 031345Z 09007KT 27/21 A3004 RMK A01 T02660205  RH  069%=      5-min Rain = 0
KLE1 031346Z 09005KT 27/21 A3004 RMK A01 T02660205  RH  069%=      5-min Rain = 0
KLE1 031347Z 09006KT 27/21 A3004 RMK A01 T02650205  RH  070%=      5-min Rain = 0
KLE1 031348Z 11006KT 27/21 A3004 RMK A01 T02670208  RH  070%=      5-min Rain = 0
KLE1 031349Z 12007KT 27/21 A3004 RMK A01 T02690207  RH  068%=      5-min Rain = 0
KLE1 031350Z 11005KT 27/21 A3004 RMK A01 T02700205  RH  068%=      5-min Rain = 0
KLE1 031351Z 10005KT 27/21 A3005 RMK A01 T02690206  RH  068%=      5-min Rain = 0
KLE1 031352Z 10004KT 27/21 A3005 RMK A01 T02690205  RH  068%=      5-min Rain = 0
KLE1 031353Z 11005KT 27/21 A3005 RMK A01 T02690206  RH  068%=      5-min Rain = 0
KLE1 031354Z 12005KT 27/21 A3005 RMK A01 T02690205  RH  068%=      5-min Rain = 0
KLE1 031355Z 12003KT 27/21 A3005 RMK A01 T02690206  RH  069%=      5-min Rain = 0
KLE1 031356Z 11002KT 27/21 A3005 RMK A01 T02700206  RH  068%=      5-min Rain = 0
KLE1 031357Z 11003KT 27/21 A3005 RMK A01 T02700205  RH  067%=      5-min Rain = 0
KLE1 031358Z 13003KT 27/21 A3005 RMK A01 T02710207  RH  068%=      5-min Rain = 0
KLE1 031359Z 11003KT 27/21 A3005 RMK A01 T02720206  RH  067%=      5-min Rain = 0
KLE1 031400Z 10004KT 27/21 A3005 RMK A01 T02720206  RH  067%=      5-min Rain = 0
KLE1 031401Z 11006KT 27/21 A3005 RMK A01 T02720205  RH  067%=      5-min Rain = 0
KLE1 031402Z 10004KT 27/21 A3005 RMK A01 T02710206  RH  067%=      5-min Rain = 0
KLE1 031403Z 11005KT 27/21 A3005 RMK A01 T02700206  RH  068%=      5-min Rain = 0
KLE1 031404Z 12005KT 27/21 A3005 RMK A01 T02700206  RH  068%=      5-min Rain = 0
KLE1 031405Z 11004KT 27/21 A3005 RMK A01 T02700206  RH  068%=      5-min Rain = 0
KLE1 031406Z 10005KT 27/21 A3005 RMK A01 T02720207  RH  068%=      5-min Rain = 0
KLE1 031407Z 11007KT 27/21 A3005 RMK A01 T02730206  RH  067%=      5-min Rain = 0
KLE1 031408Z 12005KT 27/21 A3005 RMK A01 T02740205  RH  066%=      5-min Rain = 0
KLE1 031409Z 10005KT 27/21 A3005 RMK A01 T02740206  RH  066%=      5-min Rain = 0
KLE1 031410Z 11004KT 28/21 A3005 RMK A01 T02750206  RH  066%=      5-min Rain = 0
KLE1 031411Z 11005KT 28/21 A3005 RMK A01 T02760206  RH  066%=      5-min Rain = 0
KLE1 031412Z 12007KT 28/21 A3005 RMK A01 T02770207  RH  066%=      5-min Rain = 0
KLE1 031413Z 12005KT 28/20 A3005 RMK A01 T02770204  RH  064%=      5-min Rain = 0
KLE1 031414Z 12004KT 28/21 A3005 RMK A01 T02760206  RH  066%=      5-min Rain = 0
KLE1 031415Z 09005KT 28/21 A3005 RMK A01 T02770207  RH  066%=      5-min Rain = 0
KLE1 031416Z 10006KT 28/21 A3005 RMK A01 T02780207  RH  065%=      5-min Rain = 0
KLE1 031417Z 12005KT 28/21 A3005 RMK A01 T02790207  RH  065%=      5-min Rain = 0
KLE1 031418Z 14005KT 28/21 A3005 RMK A01 T02790206  RH  065%=      5-min Rain = 0
KLE1 031419Z 13005KT 28/21 A3005 RMK A01 T02790205  RH  064%=      5-min Rain = 0
KLE1 031420Z 12005KT 28/20 A3005 RMK A01 T02790204  RH  064%=      5-min Rain = 0
KLE1 031421Z 11005KT 28/20 A3005 RMK A01 T02780204  RH  064%=      5-min Rain = 0
KLE1 031422Z 10004KT 28/21 A3005 RMK A01 T02770205  RH  065%=      5-min Rain = 0
KLE1 031423Z 11005KT 28/21 A3005 RMK A01 T02770207  RH  065%=      5-min Rain = 0
KLE1 031424Z 11004KT 28/21 A3005 RMK A01 T02800206  RH  064%=      5-min Rain = 0
KLE1 031425Z 10005KT 28/21 A3005 RMK A01 T02800206  RH  064%=      5-min Rain = 0
KLE1 031426Z 10003KT 28/21 A3005 RMK A01 T02800205  RH  064%=      5-min Rain = 0
KLE1 031427Z 11005KT 28/21 A3006 RMK A01 T02800208  RH  065%=      5-min Rain = 0
KLE1 031428Z 12005KT 28/21 A3005 RMK A01 T02820207  RH  064%=      5-min Rain = 0
KLE1 031429Z 13005KT 28/21 A3005 RMK A01 T02830206  RH  063%=      5-min Rain = 0
KLE1 031430Z 14006KT 28/21 A3005 RMK A01 T02840206  RH  063%=      5-min Rain = 0
KLE1 031431Z 14004KT 28/21 A3005 RMK A01 T02840206  RH  063%=      5-min Rain = 0
KLE1 031432Z 11005KT 28/21 A3005 RMK A01 T02840207  RH  063%=      5-min Rain = 0
KLE1 031433Z 07005KT 28/21 A3006 RMK A01 T02840205  RH  062%=      5-min Rain = 0
KLE1 031434Z 10005KT 28/21 A3005 RMK A01 T02840206  RH  063%=      5-min Rain = 0
KLE1 031435Z 09005KT 28/21 A3006 RMK A01 T02840206  RH  063%=      5-min Rain = 0
KLE1 031436Z 12005KT 28/21 A3006 RMK A01 T02840206  RH  063%=      5-min Rain = 0
KLE1 031437Z 12008KT 29/21 A3006 RMK A01 T02850207  RH  063%=      5-min Rain = 0
KLE1 031438Z 11006KT 29/20 A3006 RMK A01 T02850204  RH  062%=      5-min Rain = 0
KLE1 031439Z 12006KT 28/21 A3006 RMK A01 T02840206  RH  063%=      5-min Rain = 0
KLE1 031440Z 09005KT 28/21 A3006 RMK A01 T02840205  RH  062%=      5-min Rain = 0
KLE1 031441Z 09005KT 29/21 A3006 RMK A01 T02850205  RH  062%=      5-min Rain = 0
KLE1 031442Z 12005KT 29/21 A3006 RMK A01 T02850207  RH  062%=      5-min Rain = 0
KLE1 031443Z 12006KT 29/21 A3006 RMK A01 T02870207  RH  062%=      5-min Rain = 0
KLE1 031444Z 10006KT 29/21 A3006 RMK A01 T02880205  RH  061%=      5-min Rain = 0
KLE1 031445Z 10006KT 29/20 A3006 RMK A01 T02880204  RH  060%=      5-min Rain = 0
KLE1 031446Z 11005KT 29/21 A3006 RMK A01 T02870205  RH  061%=      5-min Rain = 0
KLE1 031447Z 11005KT 29/21 A3006 RMK A01 T02860205  RH  062%=      5-min Rain = 0
KLE1 031448Z 11007KT 29/20 A3006 RMK A01 T02850204  RH  061%=      5-min Rain = 0
KLE1 031449Z 11007KT 29/21 A3006 RMK A01 T02850205  RH  062%=      5-min Rain = 0
KLE1 031450Z 10007KT 29/21 A3006 RMK A01 T02860205  RH  062%=      5-min Rain = 0
KLE1 031451Z 10008KT 29/21 A3006 RMK A01 T02880206  RH  061%=      5-min Rain = 0
KLE1 031452Z 10007KT 29/20 A3006 RMK A01 T02890204  RH  060%=      5-min Rain = 0
KLE1 031453Z 09005KT 29/21 A3006 RMK A01 T02880206  RH  061%=      5-min Rain = 0
KLE1 031454Z 11007KT 29/21 A3006 RMK A01 T02890207  RH  061%=      5-min Rain = 0
KLE1 031455Z 11008KT 29/21 A3006 RMK A01 T02910207  RH  061%=      5-min Rain = 0
KLE1 031456Z 11006KT 29/20 A3006 RMK A01 T02900204  RH  060%=      5-min Rain = 0
KLE1 031457Z 11007KT 29/21 A3006 RMK A01 T02890205  RH  061%=      5-min Rain = 0
KLE1 031458Z 11006KT 29/20 A3006 RMK A01 T02880204  RH  060%=      5-min Rain = 0
KLE1 031459Z 11005KT 29/21 A3006 RMK A01 T02870205  RH  061%=      5-min Rain = 0
KLE1 031500Z 09007KT 29/21 A3006 RMK A01 T02870206  RH  062%=      5-min Rain = 0
KLE1 031501Z 11007KT 29/21 A3007 RMK A01 T02890207  RH  061%=      5-min Rain = 0
KLE1 031502Z 12007KT 29/21 A3007 RMK A01 T02910205  RH  060%=      5-min Rain = 0
KLE1 031503Z 12007KT 29/21 A3007 RMK A01 T02910206  RH  060%=      5-min Rain = 0
KLE1 031504Z 11006KT 29/20 A3007 RMK A01 T02920204  RH  059%=      5-min Rain = 0
KLE1 031505Z 10005KT 29/21 A3007 RMK A01 T02900205  RH  060%=      5-min Rain = 0
KLE1 031506Z 10005KT 29/21 A3007 RMK A01 T02910207  RH  061%=      5-min Rain = 0
KLE1 031507Z 09006KT 29/21 A3007 RMK A01 T02920206  RH  060%=      5-min Rain = 0
KLE1 031508Z 09007KT 29/20 A3007 RMK A01 T02920204  RH  059%=      5-min Rain = 0
KLE1 031509Z 08006KT 29/20 A3007 RMK A01 T02900204  RH  060%=      5-min Rain = 0
KLE1 031510Z 08005KT 29/21 A3007 RMK A01 T02910208  RH  061%=      5-min Rain = 0
KLE1 031511Z 12004KT 29/21 A3007 RMK A01 T02940207  RH  060%=      5-min Rain = 0
KLE1 031512Z 11007KT 30/21 A3007 RMK A01 T02950206  RH  059%=      5-min Rain = 0
KLE1 031513Z 10006KT 30/21 A3007 RMK A01 T02950207  RH  059%=      5-min Rain = 0
KLE1 031514Z 10005KT 30/21 A3007 RMK A01 T02950205  RH  058%=      5-min Rain = 0
KLE1 031515Z 08004KT 30/21 A3007 RMK A01 T02950205  RH  058%=      5-min Rain = 0
KLE1 031516Z 10005KT 30/21 A3007 RMK A01 T02950206  RH  059%=      5-min Rain = 0
KLE1 031517Z 08006KT 30/21 A3007 RMK A01 T02950205  RH  058%=      5-min Rain = 0
KLE1 031518Z 06005KT 29/20 A3007 RMK A01 T02940204  RH  058%=      5-min Rain = 0
KLE1 031519Z 07003KT 29/20 A3007 RMK A01 T02930204  RH  059%=      5-min Rain = 0
KLE1 031520Z 10004KT 29/21 A3007 RMK A01 T02920205  RH  059%=      5-min Rain = 0
KLE1 031521Z 11006KT 29/21 A3006 RMK A01 T02930205  RH  059%=      5-min Rain = 0
KLE1 031522Z 11005KT 30/21 A3006 RMK A01 T02960208  RH  059%=      5-min Rain = 0
KLE1 031523Z 12006KT 30/21 A3006 RMK A01 T02990207  RH  058%=      5-min Rain = 0
KLE1 031524Z 13005KT 30/21 A3006 RMK A01 T03000206  RH  057%=      5-min Rain = 0
KLE1 031525Z 08006KT 30/21 A3006 RMK A01 T02990206  RH  057%=      5-min Rain = 0
KLE1 031526Z 10005KT 30/20 A3006 RMK A01 T02990204  RH  057%=      5-min Rain = 0
KLE1 031527Z 08003KT 30/20 A3006 RMK A01 T02960203  RH  057%=      5-min Rain = 0
KLE1 031528Z 07008KT 30/21 A3006 RMK A01 T02970207  RH  058%=      5-min Rain = 0
KLE1 031529Z 10007KT 30/21 A3006 RMK A01 T03000206  RH  057%=      5-min Rain = 0
KLE1 031530Z 12007KT 30/20 A3006 RMK A01 T03020203  RH  055%=      5-min Rain = 0
KLE1 031531Z 13008KT 30/20 A3006 RMK A01 T03000203  RH  056%=      5-min Rain = 0
KLE1 031532Z 12007KT 30/21 A3006 RMK A01 T03000205  RH  057%=      5-min Rain = 0
KLE1 031533Z 09005KT 30/21 A3006 RMK A01 T02990206  RH  057%=      5-min Rain = 0
KLE1 031534Z 10005KT 30/20 A3006 RMK A01 T03000204  RH  056%=      5-min Rain = 0
KLE1 031535Z 11007KT 30/20 A3006 RMK A01 T03010203  RH  056%=      5-min Rain = 0
KLE1 031536Z 10007KT 30/20 A3006 RMK A01 T03010202  RH  055%=      5-min Rain = 0
KLE1 031537Z 12006KT 30/20 A3006 RMK A01 T03010202  RH  056%=      5-min Rain = 0
KLE1 031538Z 11005KT 30/20 A3006 RMK A01 T03020201  RH  055%=      5-min Rain = 0
KLE1 031539Z 09006KT 30/20 A3006 RMK A01 T03020203  RH  055%=      5-min Rain = 0
KLE1 031540Z 11006KT 30/20 A3006 RMK A01 T03010202  RH  055%=      5-min Rain = 0
KLE1 031541Z 11007KT 30/20 A3006 RMK A01 T03000202  RH  056%=      5-min Rain = 0
KLE1 031542Z 11006KT 30/20 A3006 RMK A01 T03000202  RH  056%=      5-min Rain = 0
KLE1 031543Z 11005KT 30/20 A3006 RMK A01 T03010204  RH  056%=      5-min Rain = 0
KLE1 031544Z 11006KT 30/20 A3006 RMK A01 T03030203  RH  055%=      5-min Rain = 0
KLE1 031545Z 11007KT 30/20 A3006 RMK A01 T03030202  RH  055%=      5-min Rain = 0
KLE1 031546Z 11006KT 30/20 A3006 RMK A01 T03040201  RH  054%=      5-min Rain = 0
KLE1 031547Z 12005KT 31/20 A3006 RMK A01 T03050200  RH  054%=      5-min Rain = 0
KLE1 031548Z 11008KT 31/20 A3006 RMK A01 T03060204  RH  055%=      5-min Rain = 0
KLE1 031549Z 10007KT 31/20 A3006 RMK A01 T03060202  RH  054%=      5-min Rain = 0
KLE1 031550Z 10006KT 31/20 A3006 RMK A01 T03050204  RH  055%=      5-min Rain = 0
KLE1 031551Z 11005KT 31/20 A3006 RMK A01 T03050203  RH  055%=      5-min Rain = 0
KLE1 031552Z 10006KT 31/21 A3006 RMK A01 T03070205  RH  055%=      5-min Rain = 0
KLE1 031553Z 11005KT 31/20 A3006 RMK A01 T03080204  RH  054%=      5-min Rain = 0
KLE1 031554Z 11008KT 31/20 A3006 RMK A01 T03080203  RH  054%=      5-min Rain = 0
KLE1 031555Z 12005KT 31/20 A3006 RMK A01 T03080202  RH  053%=      5-min Rain = 0
KLE1 031556Z 10005KT 31/20 A3006 RMK A01 T03080201  RH  053%=      5-min Rain = 0
KLE1 031557Z 09006KT 31/20 A3006 RMK A01 T03080202  RH  053%=      5-min Rain = 0
KLE1 031558Z 08006KT 31/20 A3006 RMK A01 T03080202  RH  053%=      5-min Rain = 0
KLE1 031559Z 09005KT 31/20 A3006 RMK A01 T03090203  RH  053%=      5-min Rain = 0
KLE1 031600Z 11006KT 31/20 A3006 RMK A01 T03100202  RH  053%=      5-min Rain = 0
KLE1 031601Z 11005KT 31/20 A3006 RMK A01 T03100202  RH  052%=      5-min Rain = 0
KLE1 031602Z 13006KT 31/20 A3006 RMK A01 T03110201  RH  052%=      5-min Rain = 0
KLE1 031603Z 13008KT 31/20 A3006 RMK A01 T03100201  RH  052%=      5-min Rain = 0
KLE1 031604Z 12007KT 31/20 A3006 RMK A01 T03110198  RH  051%=      5-min Rain = 0
KLE1 031605Z 11007KT 31/20 A3006 RMK A01 T03120198  RH  051%=      5-min Rain = 0
KLE1 031606Z 11007KT 31/20 A3006 RMK A01 T03120195  RH  050%=      5-min Rain = 0
KLE1 031607Z 12005KT 31/19 A3006 RMK A01 T03120193  RH  049%=      5-min Rain = 0
KLE1 031608Z 12005KT 31/20 A3006 RMK A01 T03100196  RH  051%=      5-min Rain = 0
KLE1 031609Z 12005KT 31/20 A3006 RMK A01 T03110201  RH  052%=      5-min Rain = 0
KLE1 031610Z 13004KT 31/20 A3006 RMK A01 T03130202  RH  052%=      5-min Rain = 0
KLE1 031611Z 14006KT 31/20 A3006 RMK A01 T03140201  RH  051%=      5-min Rain = 0
KLE1 031612Z 14007KT 32/20 A3006 RMK A01 T03150202  RH  051%=      5-min Rain = 0
KLE1 031613Z 15007KT 32/20 A3006 RMK A01 T03170202  RH  051%=      5-min Rain = 0
KLE1 031614Z 12008KT 32/20 A3006 RMK A01 T03180201  RH  050%=      5-min Rain = 0
KLE1 031615Z 11006KT 32/20 A3006 RMK A01 T03180199  RH  050%=      5-min Rain = 0
KLE1 031616Z 11007KT 32/20 A3006 RMK A01 T03170200  RH  050%=      5-min Rain = 0
KLE1 031617Z 12005KT 32/20 A3006 RMK A01 T03190199  RH  049%=      5-min Rain = 0
KLE1 031618Z 10005KT 32/20 A3006 RMK A01 T03190195  RH  048%=      5-min Rain = 0
KLE1 031619Z 10007KT 32/20 A3006 RMK A01 T03170197  RH  049%=      5-min Rain = 0
KLE1 031620Z 09005KT 32/20 A3006 RMK A01 T03170197  RH  049%=      5-min Rain = 0
KLE1 031621Z 12006KT 32/20 A3006 RMK A01 T03170197  RH  049%=      5-min Rain = 0
KLE1 031622Z 13007KT 32/20 A3006 RMK A01 T03170197  RH  049%=      5-min Rain = 0
KLE1 031623Z 11007KT 32/20 A3006 RMK A01 T03180195  RH  048%=      5-min Rain = 0
KLE1 031624Z 11008KT 32/19 A3006 RMK A01 T03200191  RH  047%=      5-min Rain = 0
KLE1 031625Z 11007KT 32/19 A3006 RMK A01 T03200190  RH  046%=      5-min Rain = 0
KLE1 031626Z 10007KT 32/19 A3006 RMK A01 T03190194  RH  047%=      5-min Rain = 0
KLE1 031627Z 09006KT 32/19 A3006 RMK A01 T03190193  RH  047%=      5-min Rain = 0
KLE1 031628Z 09005KT 32/20 A3006 RMK A01 T03180196  RH  049%=      5-min Rain = 0
KLE1 031629Z 11008KT 32/20 A3006 RMK A01 T03200196  RH  048%=      5-min Rain = 0
KLE1 031630Z 11008KT 32/19 A3006 RMK A01 T03210193  RH  047%=      5-min Rain = 0
KLE1 031631Z 13005KT 32/19 A3006 RMK A01 T03210192  RH  047%=      5-min Rain = 0
KLE1 031632Z 13003KT 32/20 A3006 RMK A01 T03210195  RH  047%=      5-min Rain = 0
KLE1 031633Z 13007KT 32/20 A3006 RMK A01 T03230198  RH  048%=      5-min Rain = 0
KLE1 031634Z 13008KT 33/19 A3006 RMK A01 T03270192  RH  045%=      5-min Rain = 0
KLE1 031635Z 12006KT 33/19 A3006 RMK A01 T03270190  RH  044%=      5-min Rain = 0
KLE1 031636Z 12005KT 33/19 A3006 RMK A01 T03260193  RH  046%=      5-min Rain = 0
KLE1 031637Z 11005KT 33/20 A3006 RMK A01 T03270197  RH  046%=      5-min Rain = 0
KLE1 031638Z 10005KT 33/20 A3006 RMK A01 T03260197  RH  047%=      5-min Rain = 0
KLE1 031639Z 10005KT 33/19 A3006 RMK A01 T03250193  RH  046%=      5-min Rain = 0
KLE1 031640Z 10005KT 32/19 A3006 RMK A01 T03230193  RH  046%=      5-min Rain = 0
KLE1 031641Z 09006KT 32/19 A3006 RMK A01 T03230189  RH  045%=      5-min Rain = 0
KLE1 031642Z 09003KT 32/19 A3005 RMK A01 T03230189  RH  045%=      5-min Rain = 0
KLE1 031643Z 10002KT 33/19 A3005 RMK A01 T03250191  RH  045%=      5-min Rain = 0
KLE1 031644Z 09002KT 33/19 A3005 RMK A01 T03270189  RH  044%=      5-min Rain = 0
KLE1 031645Z 08006KT 33/19 A3005 RMK A01 T03280193  RH  045%=      5-min Rain = 0
KLE1 031646Z 10007KT 33/19 A3005 RMK A01 T03310187  RH  043%=      5-min Rain = 0
KLE1 031647Z 12007KT 33/19 A3005 RMK A01 T03320186  RH  042%=      5-min Rain = 0
KLE1 031648Z 13008KT 33/18 A3005 RMK A01 T03340184  RH  041%=      5-min Rain = 0
KLE1 031649Z 12005KT 33/18 A3005 RMK A01 T03330182  RH  041%=      5-min Rain = 0
KLE1 031650Z 12004KT 33/19 A3005 RMK A01 T03320185  RH  042%=      5-min Rain = 0
KLE1 031651Z 11002KT 33/18 A3005 RMK A01 T03310181  RH  041%=      5-min Rain = 0
KLE1 031652Z 14001KT 33/18 A3005 RMK A01 T03300184  RH  042%=      5-min Rain = 0
KLE1 031653Z 03001KT 33/19 A3005 RMK A01 T03310185  RH  042%=      5-min Rain = 0
KLE1 031654Z 05002KT 33/18 A3005 RMK A01 T03320184  RH  041%=      5-min Rain = 0
KLE1 031655Z 11004G9KT 33/19 A3005 RMK A01 T03330186  RH  042%=      5-min Rain = 0
KLE1 031656Z 11007KT 33/19 A3005 RMK A01 T03330188  RH  042%=      5-min Rain = 0
KLE1 031657Z 12006KT 33/19 A3005 RMK A01 T03330189  RH  043%=      5-min Rain = 0
KLE1 031658Z 14006KT 33/19 A3005 RMK A01 T03320189  RH  043%=      5-min Rain = 0
KLE1 031659Z 13005KT 33/19 A3005 RMK A01 T03300186  RH  042%=      5-min Rain = 0
KLE1 031700Z 12005KT 33/19 A3005 RMK A01 T03290188  RH  043%=      5-min Rain = 0
KLE1 031701Z 13004KT 33/19 A3005 RMK A01 T03300187  RH  043%=      5-min Rain = 0
KLE1 031702Z 09003KT 33/19 A3005 RMK A01 T03300189  RH  043%=      5-min Rain = 0
KLE1 031703Z 09005KT 33/19 A3005 RMK A01 T03310188  RH  043%=      5-min Rain = 0
KLE1 031704Z 08003KT 33/19 A3005 RMK A01 T03310190  RH  043%=      5-min Rain = 0
KLE1 031705Z 07002KT 33/19 A3005 RMK A01 T03320188  RH  042%=      5-min Rain = 0
KLE1 031706Z 11005KT 33/19 A3005 RMK A01 T03330189  RH  043%=      5-min Rain = 0
KLE1 031707Z 12008KT 33/19 A3005 RMK A01 T03340189  RH  042%=      5-min Rain = 0
KLE1 031708Z 12007KT 33/19 A3005 RMK A01 T03340188  RH  042%=      5-min Rain = 0
KLE1 031709Z 11005KT 33/19 A3005 RMK A01 T03320188  RH  043%=      5-min Rain = 0
KLE1 031710Z 11003KT 33/19 A3005 RMK A01 T03320189  RH  043%=      5-min Rain = 0
KLE1 031711Z 07003KT 33/19 A3005 RMK A01 T03340189  RH  042%=      5-min Rain = 0
KLE1 031712Z 09003KT 34/19 A3005 RMK A01 T03350190  RH  042%=      5-min Rain = 0
KLE1 031713Z 12002KT 34/19 A3005 RMK A01 T03350190  RH  042%=      5-min Rain = 0
KLE1 031714Z 11001KT 34/19 A3005 RMK A01 T03360191  RH  043%=      5-min Rain = 0
KLE1 031715Z 12001KT 34/19 A3005 RMK A01 T03360189  RH  042%=      5-min Rain = 0
KLE1 031716Z 09003KT 34/19 A3005 RMK A01 T03370191  RH  042%=      5-min Rain = 0
KLE1 031717Z 13004KT 34/19 A3005 RMK A01 T03380190  RH  042%=      5-min Rain = 0
KLE1 031718Z 13005KT 34/19 A3005 RMK A01 T03400192  RH  042%=      5-min Rain = 0
KLE1 031719Z 16004KT 34/19 A3005 RMK A01 T03410188  RH  041%=      5-min Rain = 0
KLE1 031720Z 14001KT 34/19 A3005 RMK A01 T03390189  RH  041%=      5-min Rain = 0
KLE1 031721Z 11005KT 34/19 A3005 RMK A01 T03380189  RH  041%=      5-min Rain = 0
KLE1 031722Z 12007KT 34/19 A3005 RMK A01 T03410190  RH  041%=      5-min Rain = 0
KLE1 031723Z 12006KT 34/19 A3005 RMK A01 T03420189  RH  041%=      5-min Rain = 0
KLE1 031724Z 10005KT 34/19 A3005 RMK A01 T03420190  RH  041%=      5-min Rain = 0
KLE1 031725Z 10003KT 34/19 A3005 RMK A01 T03410189  RH  041%=      5-min Rain = 0
KLE1 031726Z 10002KT 34/19 A3005 RMK A01 T03410189  RH  041%=      5-min Rain = 0
KLE1 031727Z 05002KT 34/19 A3005 RMK A01 T03400188  RH  041%=      5-min Rain = 0
KLE1 031728Z 04003KT 34/19 A3005 RMK A01 T03390189  RH  041%=      5-min Rain = 0
KLE1 031729Z 05002KT 34/19 A3004 RMK A01 T03390188  RH  041%=      5-min Rain = 0
KLE1 031730Z 12004KT 34/19 A3004 RMK A01 T03400191  RH  041%=      5-min Rain = 0
KLE1 031731Z 11004KT 34/19 A3004 RMK A01 T03420187  RH  040%=      5-min Rain = 0
KLE1 031732Z 11003KT 34/19 A3004 RMK A01 T03400185  RH  040%=      5-min Rain = 0
KLE1 031733Z 15004KT 34/18 A3004 RMK A01 T03380184  RH  040%=      5-min Rain = 0
KLE1 031734Z 24001KT 34/18 A3004 RMK A01 T03380183  RH  040%=      5-min Rain = 0
KLE1 031735Z 29001KT 34/18 A3004 RMK A01 T03370182  RH  040%=      5-min Rain = 0
KLE1 031736Z 30001KT 34/19 A3004 RMK A01 T03370185  RH  041%=      5-min Rain = 0
KLE1 031737Z 08004KT 34/19 A3004 RMK A01 T03390188  RH  041%=      5-min Rain = 0
KLE1 031738Z 10004KT 34/19 A3004 RMK A01 T03430186  RH  040%=      5-min Rain = 0
KLE1 031739Z 14001KT 34/18 A3004 RMK A01 T03430183  RH  039%=      5-min Rain = 0
KLE1 031740Z 19000KT 34/18 A3004 RMK A01 T03410181  RH  039%=      5-min Rain = 0
KLE1 031741Z 19003G8KT 34/18 A3004 RMK A01 T03410184  RH  040%=      5-min Rain = 0
KLE1 031742Z 16006KT 34/19 A3004 RMK A01 T03420186  RH  040%=      5-min Rain = 0
KLE1 031743Z 18004KT 35/19 A3004 RMK A01 T03460186  RH  039%=      5-min Rain = 0
KLE1 031744Z 19004KT 35/19 A3004 RMK A01 T03460186  RH  039%=      5-min Rain = 0
KLE1 031745Z 13004KT 35/19 A3004 RMK A01 T03480188  RH  039%=      5-min Rain = 0
KLE1 031746Z 13003KT 35/18 A3004 RMK A01 T03490184  RH  038%=      5-min Rain = 0
KLE1 031747Z 12004G10KT 35/18 A3004 RMK A01 T03470184  RH  038%=      5-min Rain = 0
KLE1 031748Z 13010KT 35/19 A3004 RMK A01 T03470186  RH  039%=      5-min Rain = 0
KLE1 031749Z 12008KT 35/18 A3004 RMK A01 T03480184  RH  038%=      5-min Rain = 0
KLE1 031750Z 11006KT 35/18 A3004 RMK A01 T03470184  RH  038%=      5-min Rain = 0
KLE1 031751Z 08005KT 35/18 A3004 RMK A01 T03460184  RH  038%=      5-min Rain = 0
KLE1 031752Z 07005KT 35/18 A3004 RMK A01 T03460184  RH  038%=      5-min Rain = 0
KLE1 031753Z 07003KT 35/18 A3004 RMK A01 T03460181  RH  038%=      5-min Rain = 0
KLE1 031754Z 29001KT 34/18 A3003 RMK A01 T03440178  RH  037%=      5-min Rain = 0
KLE1 031755Z 11004G10KT 34/18 A3003 RMK A01 T03440178  RH  038%=      5-min Rain = 0
KLE1 031756Z 12010KT 35/18 A3003 RMK A01 T03450183  RH  038%=      5-min Rain = 0
KLE1 031757Z 11006KT 35/18 A3003 RMK A01 T03470182  RH  038%=      5-min Rain = 0
KLE1 031758Z 10004KT 35/18 A3003 RMK A01 T03480182  RH  038%=      5-min Rain = 0
KLE1 031759Z 15007KT 35/19 A3003 RMK A01 T03490187  RH  039%=      5-min Rain = 0
KLE1 031800Z 13005KT 35/18 A3003 RMK A01 T03530181  RH  036%=      5-min Rain = 0
KLE1 031801Z 12003KT 35/18 A3003 RMK A01 T03530179  RH  036%=      5-min Rain = 0
KLE1 031802Z 13002KT 35/17 A3003 RMK A01 T03520174  RH  035%=      5-min Rain = 0
KLE1 031803Z 10005KT 35/18 A3003 RMK A01 T03530176  RH  035%=      5-min Rain = 0
KLE1 031804Z 09007KT 36/18 A3003 RMK A01 T03550182  RH  036%=      5-min Rain = 0
KLE1 031805Z 09007KT 35/18 A3003 RMK A01 T03530180  RH  036%=      5-min Rain = 0
KLE1 031806Z 12007KT 35/18 A3003 RMK A01 T03510179  RH  036%=      5-min Rain = 0
KLE1 031807Z 15005KT 35/18 A3003 RMK A01 T03500177  RH  036%=      5-min Rain = 0
KLE1 031808Z 33002KT 35/18 A3003 RMK A01 T03490175  RH  036%=      5-min Rain = 0
KLE1 031809Z 02003KT 35/18 A3003 RMK A01 T03470177  RH  036%=      5-min Rain = 0
KLE1 031810Z 08003KT 35/18 A3003 RMK A01 T03470180  RH  037%=      5-min Rain = 0
KLE1 031811Z 10004KT 35/18 A3003 RMK A01 T03490181  RH  037%=      5-min Rain = 0
KLE1 031812Z 10004G10KT 35/18 A3003 RMK A01 T03500180  RH  037%=      5-min Rain = 0
KLE1 031813Z 09009KT 35/19 A3003 RMK A01 T03540186  RH  037%=      5-min Rain = 0
KLE1 031814Z 08006KT 36/18 A3003 RMK A01 T03570181  RH  035%=      5-min Rain = 0
KLE1 031815Z 09005KT 36/18 A3003 RMK A01 T03570180  RH  035%=      5-min Rain = 0
KLE1 031816Z 14006KT 36/18 A3003 RMK A01 T03560183  RH  036%=      5-min Rain = 0
KLE1 031817Z 16008KT 36/18 A3003 RMK A01 T03570183  RH  036%=      5-min Rain = 0
KLE1 031818Z 15007KT 36/18 A3003 RMK A01 T03580180  RH  035%=      5-min Rain = 0
KLE1 031819Z 14005KT 36/18 A3003 RMK A01 T03580176  RH  034%=      5-min Rain = 0
KLE1 031820Z 13006KT 36/18 A3003 RMK A01 T03560175  RH  034%=      5-min Rain = 0
KLE1 031821Z 15005KT 35/17 A3003 RMK A01 T03540173  RH  034%=      5-min Rain = 0
KLE1 031822Z 13004KT 35/17 A3003 RMK A01 T03530173  RH  035%=      5-min Rain = 0
KLE1 031823Z 14005KT 35/18 A3003 RMK A01 T03530177  RH  035%=      5-min Rain = 0
KLE1 031824Z 12008KT 36/18 A3003 RMK A01 T03560177  RH  035%=      5-min Rain = 0
KLE1 031825Z 11009KT 36/17 A3002 RMK A01 T03580173  RH  033%=      5-min Rain = 0
KLE1 031826Z 11009KT 36/17 A3002 RMK A01 T03590172  RH  033%=      5-min Rain = 0
KLE1 031827Z 10009KT 36/17 A3002 RMK A01 T03580169  RH  033%=      5-min Rain = 0
KLE1 031828Z 09008KT 35/17 A3002 RMK A01 T03540171  RH  034%=      5-min Rain = 0
KLE1 031829Z 09008KT 35/18 A3002 RMK A01 T03540176  RH  035%=      5-min Rain = 0
KLE1 031830Z 07007KT 36/17 A3002 RMK A01 T03570172  RH  034%=      5-min Rain = 0
KLE1 031831Z 05003KT 36/18 A3002 RMK A01 T03580177  RH  035%=      5-min Rain = 0
KLE1 031832Z 12002KT 36/18 A3002 RMK A01 T03600176  RH  034%=      5-min Rain = 0
KLE1 031833Z 07001KT 36/17 A3002 RMK A01 T03610172  RH  033%=      5-min Rain = 0
KLE1 031834Z 07006KT 36/18 A3002 RMK A01 T03600179  RH  034%=      5-min Rain = 0
KLE1 031835Z 07008KT 36/18 A3002 RMK A01 T03630176  RH  033%=      5-min Rain = 0
KLE1 031836Z 11009KT 36/18 A3002 RMK A01 T03630175  RH  033%=      5-min Rain = 0
KLE1 031837Z 08010KT 36/18 A3002 RMK A01 T03610176  RH  034%=      5-min Rain = 0
KLE1 031838Z 07010KT 36/18 A3002 RMK A01 T03610176  RH  034%=      5-min Rain = 0
KLE1 031839Z 06008KT 36/17 A3002 RMK A01 T03580171  RH  033%=      5-min Rain = 0
KLE1 031840Z 03007KT 36/17 A3002 RMK A01 T03560172  RH  034%=      5-min Rain = 0
KLE1 031841Z 06007KT 36/17 A3002 RMK A01 T03560172  RH  034%=      5-min Rain = 0
KLE1 031842Z 07010KT 36/18 A3002 RMK A01 T03610175  RH  033%=      5-min Rain = 0
KLE1 031843Z 08013G18KT 37/17 A3002 RMK A01 T03650172  RH  032%=      5-min Rain = 0
KLE1 031844Z 09008KT 36/17 A3002 RMK A01 T03630170  RH  032%=      5-min Rain = 0
KLE1 031845Z 08005KT 36/17 A3002 RMK A01 T03590167  RH  032%=      5-min Rain = 0
KLE1 031846Z 10005KT 36/17 A3002 RMK A01 T03570172  RH  033%=      5-min Rain = 0
KLE1 031847Z 12010KT 36/17 A3002 RMK A01 T03570170  RH  033%=      5-min Rain = 0
KLE1 031848Z 13012KT 36/17 A3002 RMK A01 T03610171  RH  033%=      5-min Rain = 0
KLE1 031849Z 12010G15KT 36/17 A3002 RMK A01 T03610168  RH  032%=      5-min Rain = 0
KLE1 031850Z 12011KT 36/17 A3002 RMK A01 T03610169  RH  032%=      5-min Rain = 0
KLE1 031851Z 10009KT 36/17 A3002 RMK A01 T03600169  RH  032%=      5-min Rain = 0
KLE1 031852Z 11009KT 36/17 A3002 RMK A01 T03600171  RH  033%=      5-min Rain = 0
KLE1 031853Z 13010KT 36/17 A3002 RMK A01 T03610170  RH  032%=      5-min Rain = 0
KLE1 031854Z 14007KT 36/17 A3002 RMK A01 T03620166  RH  031%=      5-min Rain = 0
KLE1 031855Z 15005KT 36/17 A3002 RMK A01 T03610167  RH  032%=      5-min Rain = 0
KLE1 031856Z 17005KT 36/17 A3002 RMK A01 T03610168  RH  032%=      5-min Rain = 0
KLE1 031857Z 16007KT 36/17 A3002 RMK A01 T03630166  RH  031%=      5-min Rain = 0
KLE1 031858Z 17006KT 36/16 A3001 RMK A01 T03630163  RH  031%=      5-min Rain = 0
KLE1 031859Z 18004KT 36/17 A3001 RMK A01 T03620166  RH  031%=      5-min Rain = 0
KLE1 031900Z 21003KT 36/17 A3001 RMK A01 T03610171  RH  033%=      5-min Rain = 0
KLE1 031901Z 11003KT 37/18 A3001 RMK A01 T03660177  RH  033%=      5-min Rain = 0
KLE1 031902Z 11009G14KT 37/17 A3001 RMK A01 T03690172  RH  031%=      5-min Rain = 0
KLE1 031903Z 10011KT 37/17 A3001 RMK A01 T03690168  RH  031%=      5-min Rain = 0
KLE1 031904Z 10009KT 37/17 A3001 RMK A01 T03700167  RH  030%=      5-min Rain = 0
KLE1 031905Z 08009KT 37/17 A3001 RMK A01 T03690170  RH  031%=      5-min Rain = 0
KLE1 031906Z 07010KT 37/17 A3001 RMK A01 T03690174  RH  032%=      5-min Rain = 0
KLE1 031907Z 07005KT 37/17 A3001 RMK A01 T03690172  RH  031%=      5-min Rain = 0
KLE1 031908Z 07004KT 37/17 A3001 RMK A01 T03690170  RH  031%=      5-min Rain = 0
KLE1 031909Z 10009KT 37/17 A3001 RMK A01 T03680168  RH  031%=      5-min Rain = 0
KLE1 031910Z 08010KT 37/17 A3001 RMK A01 T03660168  RH  031%=      5-min Rain = 0
KLE1 031911Z 08007KT 37/17 A3001 RMK A01 T03650167  RH  031%=      5-min Rain = 0
KLE1 031912Z 08007KT 36/17 A3001 RMK A01 T03640169  RH  032%=      5-min Rain = 0
KLE1 031913Z 10008KT 37/17 A3001 RMK A01 T03660173  RH  032%=      5-min Rain = 0
KLE1 031914Z 12011KT 37/17 A3001 RMK A01 T03730172  RH  031%=      5-min Rain = 0
KLE1 031915Z 11007KT 37/16 A3001 RMK A01 T03730164  RH  029%=      5-min Rain = 0
KLE1 031916Z 09005KT 37/17 A3001 RMK A01 T03700168  RH  030%=      5-min Rain = 0
KLE1 031917Z 09008KT 37/17 A3001 RMK A01 T03690172  RH  031%=      5-min Rain = 0
KLE1 031918Z 11009KT 37/17 A3001 RMK A01 T03720169  RH  030%=      5-min Rain = 0
KLE1 031919Z 11011KT 37/16 A3001 RMK A01 T03740163  RH  029%=      5-min Rain = 0
KLE1 031920Z 11010KT 37/16 A3001 RMK A01 T03730164  RH  029%=      5-min Rain = 0
KLE1 031921Z 11007G12KT 37/16 A3001 RMK A01 T03740160  RH  028%=      5-min Rain = 0
KLE1 031922Z 11010KT 37/16 A3001 RMK A01 T03710163  RH  029%=      5-min Rain = 0
KLE1 031923Z 13006KT 37/16 A3001 RMK A01 T03730160  RH  029%=      5-min Rain = 0
KLE1 031924Z 10008KT 37/16 A3001 RMK A01 T03720162  RH  029%=      5-min Rain = 0
KLE1 031925Z 12007KT 37/16 A3001 RMK A01 T03680157  RH  029%=      5-min Rain = 0
KLE1 031926Z 08006KT 37/16 A3001 RMK A01 T03650159  RH  030%=      5-min Rain = 0
KLE1 031927Z 07003KT 37/16 A3001 RMK A01 T03650162  RH  030%=      5-min Rain = 0
KLE1 031928Z 04005KT 37/17 A3001 RMK A01 T03680169  RH  031%=      5-min Rain = 0
KLE1 031929Z 35004KT 37/16 A3001 RMK A01 T03670161  RH  030%=      5-min Rain = 0
KLE1 031930Z 10003G11KT 36/16 A3001 RMK A01 T03630160  RH  030%=      5-min Rain = 0
KLE1 031931Z 11009KT 36/16 A3001 RMK A01 T03620164  RH  031%=      5-min Rain = 0
KLE1 031932Z 13011KT 36/17 A3001 RMK A01 T03630165  RH  031%=      5-min Rain = 0
KLE1 031933Z 15010KT 36/16 A3001 RMK A01 T03620162  RH  031%=      5-min Rain = 0
KLE1 031934Z 13009KT 36/16 A3001 RMK A01 T03610163  RH  031%=      5-min Rain = 0
KLE1 031935Z 10010KT 36/16 A3001 RMK A01 T03610163  RH  031%=      5-min Rain = 0
KLE1 031936Z 11007KT 36/17 A3001 RMK A01 T03630166  RH  031%=      5-min Rain = 0
KLE1 031937Z 12005KT 36/16 A3001 RMK A01 T03640161  RH  030%=      5-min Rain = 0
KLE1 031938Z 12009KT 36/16 A3001 RMK A01 T03630164  RH  031%=      5-min Rain = 0
KLE1 031939Z 12006KT 36/16 A3001 RMK A01 T03620162  RH  031%=      5-min Rain = 0
KLE1 031940Z 13007KT 36/16 A3001 RMK A01 T03600164  RH  031%=      5-min Rain = 0
KLE1 031941Z 15007KT 36/16 A3001 RMK A01 T03580160  RH  031%=      5-min Rain = 0
KLE1 031942Z 14007KT 36/16 A3001 RMK A01 T03570164  RH  032%=      5-min Rain = 0
KLE1 031943Z 12009KT 36/16 A3001 RMK A01 T03560160  RH  031%=      5-min Rain = 0
KLE1 031944Z 14005KT 36/16 A3001 RMK A01 T03560155  RH  030%=      5-min Rain = 0
KLE1 031945Z 13006KT 36/15 A3001 RMK A01 T03550154  RH  030%=      5-min Rain = 0
KLE1 031946Z 12006KT 35/16 A3001 RMK A01 T03540157  RH  031%=      5-min Rain = 0
KLE1 031947Z 12008KT 36/16 A3001 RMK A01 T03550157  RH  031%=      5-min Rain = 0
KLE1 031948Z 11011KT 36/16 A3001 RMK A01 T03560156  RH  030%=      5-min Rain = 0
KLE1 031949Z 11009KT 36/16 A30 RMK A01 T03570156  RH  030%=      5-min Rain = 0
KLE1 031950Z 13008KT 36/16 A3001 RMK A01 T03570155  RH  030%=      5-min Rain = 0
KLE1 031951Z 12007KT 36/16 A30 RMK A01 T03570157  RH  030%=      5-min Rain = 0
KLE1 031952Z 11009G14KT 36/16 A30 RMK A01 T03570160  RH  031%=      5-min Rain = 0
KLE1 031953Z 13007KT 36/15 A30 RMK A01 T03580154  RH  030%=      5-min Rain = 0
KLE1 031954Z 11004KT 36/16 A30 RMK A01 T03570156  RH  030%=      5-min Rain = 0
KLE1 031955Z 09002KT 36/16 A30 RMK A01 T03590155  RH  030%=      5-min Rain = 0
KLE1 031956Z 05004KT 36/16 A30 RMK A01 T03620159  RH  030%=      5-min Rain = 0
KLE1 031957Z 05002KT 36/16 A30 RMK A01 T03630158  RH  030%=      5-min Rain = 0
KLE1 031958Z 08003KT 36/16 A30 RMK A01 T03630160  RH  030%=      5-min Rain = 0
KLE1 031959Z 12004KT 36/16 A30 RMK A01 T03620159  RH  030%=      5-min Rain = 0
KLE1 032000Z 12004KT 36/16 A30 RMK A01 T03620161  RH  030%=      5-min Rain = 0
KLE1 032001Z 14006KT 36/16 A30 RMK A01 T03620160  RH  030%=      5-min Rain = 0
KLE1 032002Z 10010KT 37/17 A30 RMK A01 T03650167  RH  031%=      5-min Rain = 0
KLE1 032003Z 10011KT 37/16 A30 RMK A01 T03690163  RH  030%=      5-min Rain = 0
KLE1 032004Z 09011KT 37/17 A30 RMK A01 T03680167  RH  031%=      5-min Rain = 0
KLE1 032005Z 11012KT 37/16 A30 RMK A01 T03680163  RH  030%=      5-min Rain = 0
KLE1 032006Z 12011KT 37/16 A30 RMK A01 T03650160  RH  030%=      5-min Rain = 0
KLE1 032007Z 13008KT 36/16 A30 RMK A01 T03630158  RH  030%=      5-min Rain = 0
KLE1 032008Z 16010KT 36/16 A30 RMK A01 T03620160  RH  030%=      5-min Rain = 0
KLE1 032009Z 17008KT 37/16 A30 RMK A01 T03650160  RH  030%=      5-min Rain = 0
KLE1 032010Z 16009KT 37/16 A30 RMK A01 T03670162  RH  030%=      5-min Rain = 0
KLE1 032011Z 17006KT 37/16 A30 RMK A01 T03680163  RH  030%=      5-min Rain = 0
KLE1 032012Z 14007KT 37/17 A30 RMK A01 T03700166  RH  030%=      5-min Rain = 0
KLE1 032013Z 13008KT 37/17 A30 RMK A01 T03730166  RH  030%=      5-min Rain = 0
KLE1 032014Z 14007KT 37/16 A30 RMK A01 T03730162  RH  029%=      5-min Rain = 0
KLE1 032015Z 15006KT 37/16 A30 RMK A01 T03710162  RH  029%=      5-min Rain = 0
KLE1 032016Z 14008G13KT 37/17 A2999 RMK A01 T03710167  RH  030%=      5-min Rain = 0
KLE1 032017Z 11009KT 37/17 A2999 RMK A01 T03740167  RH  029%=      5-min Rain = 0
KLE1 032018Z 10005KT 37/16 A2999 RMK A01 T03740161  RH  029%=      5-min Rain = 0
KLE1 032019Z 12008G13KT 37/16 A2999 RMK A01 T03710164  RH  029%=      5-min Rain = 0
KLE1 032020Z 13016KT 37/17 A2999 RMK A01 T03720165  RH  030%=      5-min Rain = 0
KLE1 032021Z 13017KT 38/17 A2999 RMK A01 T03750165  RH  029%=      5-min Rain = 0
KLE1 032022Z 13015KT 38/17 A2999 RMK A01 T03760166  RH  029%=      5-min Rain = 0
KLE1 032023Z 13014KT 38/16 A2999 RMK A01 T03780163  RH  028%=      5-min Rain = 0
KLE1 032024Z 14013KT 38/16 A2999 RMK A01 T03750163  RH  029%=      5-min Rain = 0
KLE1 032025Z 14011KT 37/16 A2999 RMK A01 T03740161  RH  029%=      5-min Rain = 0
KLE1 032026Z 12009KT 37/16 A2999 RMK A01 T03700158  RH  029%=      5-min Rain = 0
KLE1 032027Z 12009KT 37/16 A2999 RMK A01 T03700164  RH  030%=      5-min Rain = 0
KLE1 032028Z 12010KT 37/16 A2999 RMK A01 T03730162  RH  029%=      5-min Rain = 0
KLE1 032029Z 13009KT 37/17 A2999 RMK A01 T03740165  RH  029%=      5-min Rain = 0
KLE1 032030Z 13011KT 38/16 A2999 RMK A01 T03770164  RH  029%=      5-min Rain = 0
KLE1 032031Z 13010KT 38/16 A2999 RMK A01 T03760162  RH  028%=      5-min Rain = 0
KLE1 032032Z 14009KT 38/16 A2999 RMK A01 T03750164  RH  029%=      5-min Rain = 0
KLE1 032033Z 13008KT 38/16 A2999 RMK A01 T03750162  RH  029%=      5-min Rain = 0
KLE1 032034Z 14005KT 38/17 A2999 RMK A01 T03760168  RH  029%=      5-min Rain = 0
KLE1 032035Z 13005KT 38/16 A2999 RMK A01 T03780160  RH  028%=      5-min Rain = 0
KLE1 032036Z 14008KT 38/17 A2999 RMK A01 T03780167  RH  029%=      5-min Rain = 0
KLE1 032037Z 15007KT 38/17 A2999 RMK A01 T03800165  RH  028%=      5-min Rain = 0
KLE1 032038Z 12009KT 38/17 A2999 RMK A01 T03800165  RH  028%=      5-min Rain = 0
KLE1 032039Z 11009KT 38/17 A2999 RMK A01 T03790169  RH  029%=      5-min Rain = 0
KLE1 032040Z 11006KT 38/17 A2999 RMK A01 T03760166  RH  029%=      5-min Rain = 0
KLE1 032041Z 08007KT 38/17 A2999 RMK A01 T03750168  RH  030%=      5-min Rain = 0
KLE1 032042Z 08014KT 38/17 A2998 RMK A01 T03750167  RH  030%=      5-min Rain = 0
KLE1 032043Z 09012KT 38/17 A2998 RMK A01 T03760168  RH  029%=      5-min Rain = 0
KLE1 032044Z 12014KT 38/17 A2998 RMK A01 T03780167  RH  029%=      5-min Rain = 0
KLE1 032045Z 11015KT 38/16 A2998 RMK A01 T03780164  RH  028%=      5-min Rain = 0
KLE1 032046Z 11015KT 38/17 A2998 RMK A01 T03760166  RH  029%=      5-min Rain = 0
KLE1 032047Z 12014G19KT 38/16 A2999 RMK A01 T03770164  RH  029%=      5-min Rain = 0
KLE1 032048Z 12013KT 38/16 A2999 RMK A01 T03750164  RH  029%=      5-min Rain = 0
KLE1 032049Z 13012KT 37/17 A2999 RMK A01 T03740166  RH  029%=      5-min Rain = 0
KLE1 032050Z 12009KT 37/16 A2999 RMK A01 T03740163  RH  029%=      5-min Rain = 0
KLE1 032051Z 13010KT 37/17 A2999 RMK A01 T03740166  RH  029%=      5-min Rain = 0
KLE1 032052Z 14012KT 38/16 A2999 RMK A01 T03750162  RH  029%=      5-min Rain = 0
KLE1 032053Z 14010KT 38/16 A2999 RMK A01 T03760159  RH  028%=      5-min Rain = 0
KLE1 032054Z 13009G15KT 38/16 A2999 RMK A01 T03750161  RH  028%=      5-min Rain = 0
KLE1 032055Z 11016KT 38/17 A2998 RMK A01 T03750165  RH  029%=      5-min Rain = 0
KLE1 032056Z 11014KT 38/16 A2998 RMK A01 T03750162  RH  029%=      5-min Rain = 0
KLE1 032057Z 11012KT 37/16 A2998 RMK A01 T03730164  RH  029%=      5-min Rain = 0
KLE1 032058Z 13009KT 37/17 A2999 RMK A01 T03730165  RH  029%=      5-min Rain = 0
KLE1 032059Z 14009KT 37/17 A2999 RMK A01 T03740168  RH  030%=      5-min Rain = 0
KLE1 032100Z 15009KT 38/17 A2998 RMK A01 T03750165  RH  029%=      5-min Rain = 0
KLE1 032101Z 16005KT 37/16 A2998 RMK A01 T03730163  RH  029%=      5-min Rain = 0
KLE1 032102Z 14009KT 37/17 A2998 RMK A01 T03730168  RH  030%=      5-min Rain = 0
KLE1 032103Z 12013KT 37/16 A2998 RMK A01 T03740163  RH  029%=      5-min Rain = 0
KLE1 032104Z 11011KT 38/16 A2998 RMK A01 T03750162  RH  029%=      5-min Rain = 0
KLE1 032105Z 12011KT 38/16 A2998 RMK A01 T03750160  RH  028%=      5-min Rain = 0
KLE1 032106Z 13010KT 38/16 A2998 RMK A01 T03750161  RH  028%=      5-min Rain = 0
KLE1 032107Z 12009KT 38/16 A2998 RMK A01 T03760160  RH  028%=      5-min Rain = 0
KLE1 032108Z 14009KT 38/16 A2998 RMK A01 T03760164  RH  029%=      5-min Rain = 0
KLE1 032109Z 15007KT 38/16 A2998 RMK A01 T03770163  RH  028%=      5-min Rain = 0
KLE1 032110Z 09008KT 38/16 A2998 RMK A01 T03770164  RH  029%=      5-min Rain = 0
KLE1 032111Z 08010KT 38/16 A2998 RMK A01 T03790163  RH  028%=      5-min Rain = 0
KLE1 032112Z 11014KT 38/16 A2998 RMK A01 T03790164  RH  028%=      5-min Rain = 0
KLE1 032113Z 13015KT 38/16 A2998 RMK A01 T03790164  RH  028%=      5-min Rain = 0
KLE1 032114Z 11013KT 38/16 A2998 RMK A01 T03800161  RH  028%=      5-min Rain = 0
KLE1 032115Z 11012KT 38/16 A2998 RMK A01 T03780159  RH  027%=      5-min Rain = 0
KLE1 032116Z 13015KT 38/16 A2998 RMK A01 T03770159  RH  028%=      5-min Rain = 0
KLE1 032117Z 11013KT 38/16 A2998 RMK A01 T03760157  RH  027%=      5-min Rain = 0
KLE1 032118Z 11011KT 37/16 A2998 RMK A01 T03740157  RH  028%=      5-min Rain = 0
KLE1 032119Z 13014KT 37/16 A2998 RMK A01 T03730158  RH  028%=      5-min Rain = 0
KLE1 032120Z 12010KT 37/16 A2998 RMK A01 T03740157  RH  028%=      5-min Rain = 0
KLE1 032121Z 11009KT 37/16 A2998 RMK A01 T03740159  RH  028%=      5-min Rain = 0
KLE1 032122Z 11006KT 37/16 A2998 RMK A01 T03730158  RH  028%=      5-min Rain = 0
KLE1 032123Z 13013KT 37/16 A2997 RMK A01 T03730162  RH  029%=      5-min Rain = 0
KLE1 032124Z 11015KT 38/16 A2997 RMK A01 T03770163  RH  028%=      5-min Rain = 0
KLE1 032125Z 11013KT 38/16 A2997 RMK A01 T03790160  RH  027%=      5-min Rain = 0
KLE1 032126Z 10012KT 38/16 A2997 RMK A01 T03780159  RH  028%=      5-min Rain = 0
KLE1 032127Z 10013KT 38/16 A2997 RMK A01 T03780160  RH  028%=      5-min Rain = 0
KLE1 032128Z 09009KT 38/16 A2997 RMK A01 T03770159  RH  028%=      5-min Rain = 0
KLE1 032129Z 12007KT 38/16 A2997 RMK A01 T03750157  RH  028%=      5-min Rain = 0
KLE1 032130Z 16008KT 38/16 A2997 RMK A01 T03750162  RH  029%=      5-min Rain = 0
KLE1 032131Z 15011KT 38/16 A2997 RMK A01 T03770159  RH  028%=      5-min Rain = 0
KLE1 032132Z 17009KT 38/16 A2997 RMK A01 T03760158  RH  028%=      5-min Rain = 0
KLE1 032133Z 16011KT 38/16 A2997 RMK A01 T03760163  RH  029%=      5-min Rain = 0
KLE1 032134Z 13012KT 38/16 A2997 RMK A01 T03770160  RH  028%=      5-min Rain = 0
KLE1 032135Z 13009KT 38/16 A2997 RMK A01 T03760158  RH  028%=      5-min Rain = 0
KLE1 032136Z 14012G17KT 38/16 A2996 RMK A01 T03750161  RH  028%=      5-min Rain = 0
KLE1 032137Z 12015KT 38/16 A2996 RMK A01 T03760162  RH  028%=      5-min Rain = 0
KLE1 032138Z 13014KT 38/16 A2996 RMK A01 T03780162  RH  028%=      5-min Rain = 0
KLE1 032139Z 14015KT 38/16 A2996 RMK A01 T03790162  RH  028%=      5-min Rain = 0
KLE1 032140Z 12015KT 38/16 A2996 RMK A01 T03790160  RH  028%=      5-min Rain = 0
KLE1 032141Z 14016KT 38/16 A2996 RMK A01 T03780160  RH  028%=      5-min Rain = 0
KLE1 032142Z 14015KT 38/16 A2996 RMK A01 T03760159  RH  028%=      5-min Rain = 0
KLE1 032143Z 13013KT 38/16 A2997 RMK A01 T03750160  RH  028%=      5-min Rain = 0
KLE1 032144Z 14011KT 38/16 A2997 RMK A01 T03770163  RH  028%=      5-min Rain = 0
KLE1 032145Z 15012KT 38/16 A2997 RMK A01 T03790161  RH  028%=      5-min Rain = 0
KLE1 032146Z 16012KT 38/16 A2997 RMK A01 T03790159  RH  027%=      5-min Rain = 0
KLE1 032147Z 15013KT 38/16 A2997 RMK A01 T03770158  RH  028%=      5-min Rain = 0
KLE1 032148Z 15006KT 37/16 A2997 RMK A01 T03740156  RH  028%=      5-min Rain = 0
KLE1 032149Z 19005KT 37/16 A2996 RMK A01 T03730156  RH  028%=      5-min Rain = 0
KLE1 032150Z 19004KT 37/16 A2996 RMK A01 T03720156  RH  028%=      5-min Rain = 0
KLE1 032151Z 14006KT 37/16 A2996 RMK A01 T03720160  RH  029%=      5-min Rain = 0
KLE1 032152Z 13013KT 38/16 A2996 RMK A01 T03750160  RH  028%=      5-min Rain = 0
KLE1 032153Z 13014KT 38/16 A2996 RMK A01 T03760158  RH  028%=      5-min Rain = 0
KLE1 032154Z 12012KT 38/16 A2996 RMK A01 T03760156  RH  027%=      5-min Rain = 0
KLE1 032155Z 12012KT 37/16 A2996 RMK A01 T03740157  RH  028%=      5-min Rain = 0
KLE1 032156Z 10011KT 37/16 A2996 RMK A01 T03740158  RH  028%=      5-min Rain = 0
KLE1 032157Z 11009G14KT 38/16 A2996 RMK A01 T03750160  RH  028%=      5-min Rain = 0
KLE1 032158Z 12011KT 38/16 A2996 RMK A01 T03770160  RH  028%=      5-min Rain = 0
KLE1 032159Z 11009KT 38/16 A2996 RMK A01 T03770159  RH  028%=      5-min Rain = 0
KLE1 032200Z 11008KT 38/16 A2996 RMK A01 T03760161  RH  028%=      5-min Rain = 0
KLE1 032201Z 11005KT 38/16 A2996 RMK A01 T03760159  RH  028%=      5-min Rain = 0
KLE1 032202Z 10005KT 38/16 A2996 RMK A01 T03750161  RH  028%=      5-min Rain = 0
KLE1 032203Z 07005KT 38/16 A2996 RMK A01 T03760161  RH  028%=      5-min Rain = 0
KLE1 032204Z 11006G11KT 38/16 A2996 RMK A01 T03770161  RH  028%=      5-min Rain = 0
KLE1 032205Z 13012KT 38/16 A2996 RMK A01 T03780162  RH  028%=      5-min Rain = 0
KLE1 032206Z 13014G20KT 38/16 A2996 RMK A01 T03790159  RH  027%=      5-min Rain = 0
KLE1 032207Z 12012G18KT 38/16 A2996 RMK A01 T03780155  RH  027%=      5-min Rain = 0
KLE1 032208Z 12012KT 37/16 A2996 RMK A01 T03740156  RH  027%=      5-min Rain = 0
KLE1 032209Z 15016KT 37/16 A2996 RMK A01 T03740157  RH  028%=      5-min Rain = 0
KLE1 032210Z 15015KT 38/16 A2996 RMK A01 T03750156  RH  027%=      5-min Rain = 0
KLE1 032211Z 15011KT 38/16 A2996 RMK A01 T03750155  RH  027%=      5-min Rain = 0
KLE1 032212Z 16008KT 37/16 A2996 RMK A01 T03740159  RH  028%=      5-min Rain = 0
KLE1 032213Z 15011KT 38/16 A2996 RMK A01 T03760158  RH  028%=      5-min Rain = 0
KLE1 032214Z 16009KT 38/16 A2996 RMK A01 T03760155  RH  027%=      5-min Rain = 0
KLE1 032215Z 13012G17KT 38/16 A2996 RMK A01 T03760162  RH  028%=      5-min Rain = 0
KLE1 032216Z 13014KT 38/16 A2996 RMK A01 T03790158  RH  027%=      5-min Rain = 0
KLE1 032217Z 14014KT 38/16 A2996 RMK A01 T03800157  RH  027%=      5-min Rain = 0
KLE1 032218Z 13014KT 38/16 A2996 RMK A01 T03780156  RH  027%=      5-min Rain = 0
KLE1 032219Z 13011KT 38/15 A2996 RMK A01 T03770154  RH  027%=      5-min Rain = 0
KLE1 032220Z 14010KT 37/15 A2996 RMK A01 T03740154  RH  027%=      5-min Rain = 0
KLE1 032221Z 15007KT 37/16 A2996 RMK A01 T03730155  RH  027%=      5-min Rain = 0
KLE1 032222Z 15010KT 37/16 A2996 RMK A01 T03740157  RH  028%=      5-min Rain = 0
KLE1 032223Z 14010KT 38/16 A2996 RMK A01 T03760159  RH  028%=      5-min Rain = 0
KLE1 032224Z 14007KT 38/16 A2996 RMK A01 T03780161  RH  028%=      5-min Rain = 0
KLE1 032225Z 17004G9KT 38/16 A2996 RMK A01 T03790156  RH  027%=      5-min Rain = 0
KLE1 032226Z 15010KT 38/16 A2996 RMK A01 T03780156  RH  027%=      5-min Rain = 0
KLE1 032227Z 13012KT 38/16 A2996 RMK A01 T03770157  RH  027%=      5-min Rain = 0
KLE1 032228Z 14011KT 38/16 A2996 RMK A01 T03770156  RH  027%=      5-min Rain = 0
KLE1 032229Z 13009KT 38/16 A2996 RMK A01 T03780158  RH  027%=      5-min Rain = 0
KLE1 032230Z 12011KT 38/16 A2996 RMK A01 T03780157  RH  027%=      5-min Rain = 0
KLE1 032231Z 13014KT 38/16 A2996 RMK A01 T03780158  RH  027%=      5-min Rain = 0
KLE1 032232Z 13011KT 38/16 A2996 RMK A01 T03790155  RH  027%=      5-min Rain = 0
KLE1 032233Z 14014KT 38/16 A2996 RMK A01 T03770157  RH  027%=      5-min Rain = 0
KLE1 032234Z 16013KT 38/16 A2996 RMK A01 T03770155  RH  027%=      5-min Rain = 0
KLE1 032235Z 16009KT 38/16 A2996 RMK A01 T03760155  RH  027%=      5-min Rain = 0
KLE1 032236Z 16011KT 38/16 A2996 RMK A01 T03760158  RH  028%=      5-min Rain = 0
KLE1 032237Z 17011KT 38/16 A2996 RMK A01 T03770157  RH  027%=      5-min Rain = 0
KLE1 032238Z 16013KT 38/16 A2996 RMK A01 T03780155  RH  027%=      5-min Rain = 0
KLE1 032239Z 17011KT 38/16 A2996 RMK A01 T03780157  RH  027%=      5-min Rain = 0
KLE1 032240Z 17007KT 38/15 A2996 RMK A01 T03770153  RH  027%=      5-min Rain = 0
KLE1 032241Z 17010KT 38/15 A2996 RMK A01 T03750154  RH  027%=      5-min Rain = 0
KLE1 032242Z 17011KT 38/15 A2996 RMK A01 T03750153  RH  027%=      5-min Rain = 0
KLE1 032243Z 16010KT 38/16 A2996 RMK A01 T03750155  RH  027%=      5-min Rain = 0
KLE1 032244Z 17008KT 38/15 A2996 RMK A01 T03760154  RH  027%=      5-min Rain = 0
KLE1 032245Z 17009KT 38/16 A2996 RMK A01 T03770158  RH  028%=      5-min Rain = 0
KLE1 032246Z 16011KT 38/16 A2996 RMK A01 T03790156  RH  027%=      5-min Rain = 0
KLE1 032247Z 14011KT 38/15 A2996 RMK A01 T03790154  RH  027%=      5-min Rain = 0
KLE1 032248Z 14009KT 38/16 A2996 RMK A01 T03760156  RH  027%=      5-min Rain = 0
KLE1 032249Z 16011KT 38/16 A2995 RMK A01 T03750158  RH  028%=      5-min Rain = 0
KLE1 032250Z 16012KT 38/16 A2995 RMK A01 T03770157  RH  027%=      5-min Rain = 0
KLE1 032251Z 16011KT 37/15 A2996 RMK A01 T03740153  RH  027%=      5-min Rain = 0
KLE1 032252Z 16010KT 37/15 A2995 RMK A01 T03720154  RH  028%=      5-min Rain = 0
KLE1 032253Z 14011KT 37/16 A2995 RMK A01 T03710158  RH  028%=      5-min Rain = 0
KLE1 032254Z 14013KT 37/15 A2995 RMK A01 T03700154  RH  028%=      5-min Rain = 0
KLE1 032255Z 15012KT 37/15 A2995 RMK A01 T03690152  RH  028%=      5-min Rain = 0
KLE1 032256Z 15010KT 37/15 A2995 RMK A01 T03680151  RH  027%=      5-min Rain = 0
KLE1 032257Z 15010KT 37/15 A2995 RMK A01 T03690154  RH  028%=      5-min Rain = 0
KLE1 032258Z 14010KT 37/15 A2995 RMK A01 T03700154  RH  028%=      5-min Rain = 0
KLE1 032259Z 15010KT 37/15 A2995 RMK A01 T03710153  RH  027%=      5-min Rain = 0
KLE1 032300Z 15011KT 37/15 A2995 RMK A01 T03720154  RH  028%=      5-min Rain = 0
KLE1 032301Z 14011KT 37/15 A2995 RMK A01 T03740154  RH  027%=      5-min Rain = 0
KLE1 032302Z 13012KT 37/16 A2995 RMK A01 T03740156  RH  028%=      5-min Rain = 0
KLE1 032303Z 12011KT 37/16 A2995 RMK A01 T03740155  RH  027%=      5-min Rain = 0
KLE1 032304Z 14011KT 38/16 A2995 RMK A01 T03750155  RH  027%=      5-min Rain = 0
KLE1 032305Z 15010KT 37/15 A2995 RMK A01 T03740151  RH  027%=      5-min Rain = 0
KLE1 032306Z 14010KT 37/15 A2995 RMK A01 T03730152  RH  027%=      5-min Rain = 0
KLE1 032307Z 12011KT 37/16 A2995 RMK A01 T03730157  RH  028%=      5-min Rain = 0
KLE1 032308Z 13012KT 38/15 A2995 RMK A01 T03750154  RH  027%=      5-min Rain = 0
KLE1 032309Z 13012KT 37/15 A2995 RMK A01 T03740150  RH  027%=      5-min Rain = 0
KLE1 032310Z 13012KT 37/15 A2995 RMK A01 T03720152  RH  027%=      5-min Rain = 0
KLE1 032311Z 13009KT 37/15 A2995 RMK A01 T03720152  RH  027%=      5-min Rain = 0
KLE1 032312Z 13007KT 37/15 A2995 RMK A01 T03720150  RH  027%=      5-min Rain = 0
KLE1 032313Z 15008G13KT 37/15 A2995 RMK A01 T03710153  RH  028%=      5-min Rain = 0
KLE1 032314Z 16011KT 37/15 A2995 RMK A01 T03710153  RH  027%=      5-min Rain = 0
KLE1 032315Z 16013KT 37/15 A2994 RMK A01 T03720153  RH  027%=      5-min Rain = 0
KLE1 032316Z 15013KT 37/15 A2995 RMK A01 T03720150  RH  027%=      5-min Rain = 0
KLE1 032317Z 16012KT 37/15 A2995 RMK A01 T03710151  RH  027%=      5-min Rain = 0
KLE1 032318Z 14011KT 37/15 A2994 RMK A01 T03710152  RH  027%=      5-min Rain = 0
KLE1 032319Z 14011KT 37/15 A2994 RMK A01 T03710152  RH  027%=      5-min Rain = 0
KLE1 032320Z 14009KT 37/16 A2994 RMK A01 T03720155  RH  028%=      5-min Rain = 0
KLE1 032321Z 14010KT 37/16 A2994 RMK A01 T03730156  RH  028%=      5-min Rain = 0
KLE1 032322Z 13012KT 37/15 A2994 RMK A01 T03740154  RH  027%=      5-min Rain = 0
KLE1 032323Z 14011KT 37/16 A2995 RMK A01 T03730155  RH  027%=      5-min Rain = 0
KLE1 032324Z 14011KT 37/15 A2995 RMK A01 T03720152  RH  027%=      5-min Rain = 0
KLE1 032325Z 16012KT 37/15 A2995 RMK A01 T03710152  RH  027%=      5-min Rain = 0
KLE1 032326Z 16012KT 37/15 A2994 RMK A01 T03710151  RH  027%=      5-min Rain = 0
KLE1 032327Z 16012KT 37/15 A2994 RMK A01 T03710152  RH  027%=      5-min Rain = 0
KLE1 032328Z 16013KT 37/15 A2994 RMK A01 T03710152  RH  027%=      5-min Rain = 0
KLE1 032329Z 14012KT 37/15 A2994 RMK A01 T03710152  RH  027%=      5-min Rain = 0
KLE1 032330Z 15010KT 37/16 A2995 RMK A01 T03720156  RH  028%=      5-min Rain = 0
KLE1 032331Z 17009KT 37/16 A2994 RMK A01 T03720155  RH  028%=      5-min Rain = 0
KLE1 032332Z 16009KT 37/15 A2994 RMK A01 T03720152  RH  027%=      5-min Rain = 0
KLE1 032333Z 15010KT 37/15 A2994 RMK A01 T03720152  RH  027%=      5-min Rain = 0
KLE1 032334Z 16009KT 37/15 A2994 RMK A01 T03720153  RH  027%=      5-min Rain = 0
KLE1 032335Z 15010KT 37/15 A2994 RMK A01 T03730150  RH  027%=      5-min Rain = 0
KLE1 032336Z 15011KT 37/15 A2994 RMK A01 T03720153  RH  027%=      5-min Rain = 0
KLE1 032337Z 16010KT 37/15 A2994 RMK A01 T03710153  RH  027%=      5-min Rain = 0
KLE1 032338Z 15010KT 37/15 A2994 RMK A01 T03710154  RH  028%=      5-min Rain = 0
KLE1 032339Z 16010KT 37/16 A2994 RMK A01 T03720155  RH  028%=      5-min Rain = 0
KLE1 032340Z 17010KT 37/16 A2994 RMK A01 T03720155  RH  028%=      5-min Rain = 0
KLE1 032341Z 16012KT 37/16 A2994 RMK A01 T03720156  RH  028%=      5-min Rain = 0
KLE1 032342Z 16011KT 37/15 A2994 RMK A01 T03720154  RH  028%=      5-min Rain = 0
KLE1 032343Z 15012KT 37/15 A2994 RMK A01 T03710153  RH  027%=      5-min Rain = 0
KLE1 032344Z 15012KT 37/15 A2994 RMK A01 T03700152  RH  028%=      5-min Rain = 0
KLE1 032345Z 15011KT 37/15 A2994 RMK A01 T03700151  RH  027%=      5-min Rain = 0
KLE1 032346Z 15011KT 37/15 A2994 RMK A01 T03700148  RH  027%=      5-min Rain = 0
KLE1 032347Z 16012KT 37/15 A2994 RMK A01 T03690152  RH  028%=      5-min Rain = 0
KLE1 032348Z 13010KT 37/15 A2994 RMK A01 T03690154  RH  028%=      5-min Rain = 0
KLE1 032349Z 12013KT 37/15 A2994 RMK A01 T03700152  RH  027%=      5-min Rain = 0
KLE1 032350Z 13013KT 37/15 A2994 RMK A01 T03700151  RH  027%=      5-min Rain = 0
KLE1 032351Z 13015KT 37/15 A2994 RMK A01 T03680150  RH  027%=      5-min Rain = 0
KLE1 032352Z 13014KT 37/15 A2994 RMK A01 T03680153  RH  028%=      5-min Rain = 0
KLE1 032353Z 13014KT 37/16 A2994 RMK A01 T03670157  RH  029%=      5-min Rain = 0
KLE1 032354Z 13016KT 37/16 A2994 RMK A01 T03670157  RH  029%=      5-min Rain = 0
KLE1 032355Z 13013KT 37/16 A2994 RMK A01 T03650157  RH  029%=      5-min Rain = 0
KLE1 032356Z 13011KT 36/16 A2994 RMK A01 T03640157  RH  029%=      5-min Rain = 0
KLE1 032357Z 13012G18KT 36/16 A2994 RMK A01 T03640159  RH  030%=      5-min Rain = 0
KLE1 032358Z 12018KT 36/16 A2994 RMK A01 T03640158  RH  029%=      5-min Rain = 0
KLE1 032359Z 12015KT 36/16 A2994 RMK A01 T03630157  RH  029%=      5-min Rain = 0
KLE1 040000Z 13014KT 36/16 A2994 RMK A01 T03630159  RH  030%=      5-min Rain = 0
KLE1 040001Z 13014KT 36/16 A2994 RMK A01 T03630158  RH  030%=      5-min Rain = 0
KLE1 040002Z 13012KT 36/16 A2994 RMK A01 T03630159  RH  030%=      5-min Rain = 0
KLE1 040003Z 13012KT 36/16 A2994 RMK A01 T03630161  RH  030%=      5-min Rain = 0
KLE1 040004Z 12014KT 36/16 A2994 RMK A01 T03630158  RH  030%=      5-min Rain = 0
KLE1 040005Z 13014KT 36/16 A2994 RMK A01 T03630158  RH  030%=      5-min Rain = 0
KLE1 040006Z 13015KT 36/16 A2994 RMK A01 T03620158  RH  030%=      5-min Rain = 0
KLE1 040007Z 13015KT 36/16 A2994 RMK A01 T03620158  RH  030%=      5-min Rain = 0
KLE1 040008Z 13014KT 36/16 A2994 RMK A01 T03610156  RH  030%=      5-min Rain = 0
KLE1 040009Z 14014KT 36/16 A2994 RMK A01 T03610156  RH  030%=      5-min Rain = 0
KLE1 040010Z 14013KT 36/15 A2994 RMK A01 T03610154  RH  029%=      5-min Rain = 0
KLE1 040011Z 14012KT 36/16 A2994 RMK A01 T03610157  RH  030%=      5-min Rain = 0
KLE1 040012Z 13014KT 36/16 A2994 RMK A01 T03610160  RH  030%=      5-min Rain = 0
KLE1 040013Z 13015KT 36/16 A2994 RMK A01 T03610159  RH  030%=      5-min Rain = 0
KLE1 040014Z 13015KT 36/16 A2994 RMK A01 T03600159  RH  030%=      5-min Rain = 0
KLE1 040015Z 14016KT 36/16 A2994 RMK A01 T03590159  RH  031%=      5-min Rain = 0
KLE1 040016Z 13014KT 36/16 A2994 RMK A01 T03590159  RH  030%=      5-min Rain = 0
KLE1 040017Z 13013KT 36/16 A2994 RMK A01 T03580157  RH  030%=      5-min Rain = 0
KLE1 040018Z 13011KT 36/16 A2994 RMK A01 T03580158  RH  031%=      5-min Rain = 0
KLE1 040019Z 14013KT 36/16 A2994 RMK A01 T03590162  RH  031%=      5-min Rain = 0
KLE1 040020Z 13013KT 36/16 A2994 RMK A01 T03590161  RH  031%=      5-min Rain = 0
KLE1 040021Z 13014KT 36/16 A2994 RMK A01 T03590159  RH  030%=      5-min Rain = 0
KLE1 040022Z 13015KT 36/16 A2994 RMK A01 T03590158  RH  030%=      5-min Rain = 0
KLE1 040023Z 13014KT 36/16 A2994 RMK A01 T03580156  RH  030%=      5-min Rain = 0
KLE1 040024Z 13014KT 36/16 A2994 RMK A01 T03570157  RH  030%=      5-min Rain = 0
KLE1 040025Z 13015KT 36/16 A2994 RMK A01 T03570155  RH  030%=      5-min Rain = 0
KLE1 040026Z 14015KT 36/16 A2994 RMK A01 T03570155  RH  030%=      5-min Rain = 0
KLE1 040027Z 13014KT 36/16 A2995 RMK A01 T03560155  RH  030%=      5-min Rain = 0
KLE1 040028Z 12013KT 36/16 A2995 RMK A01 T03560156  RH  030%=      5-min Rain = 0
KLE1 040029Z 12014KT 36/16 A2995 RMK A01 T03560156  RH  030%=      5-min Rain = 0
KLE1 040030Z 12014KT 36/15 A2995 RMK A01 T03560154  RH  030%=      5-min Rain = 0
KLE1 040031Z 12015KT 36/15 A2995 RMK A01 T03560154  RH  030%=      5-min Rain = 0
KLE1 040032Z 13013KT 36/16 A2995 RMK A01 T03550155  RH  030%=      5-min Rain = 0
KLE1 040033Z 12012KT 36/16 A2995 RMK A01 T03550156  RH  031%=      5-min Rain = 0
KLE1 040034Z 12012KT 36/16 A2995 RMK A01 T03550157  RH  031%=      5-min Rain = 0
KLE1 040035Z 12011KT 36/16 A2995 RMK A01 T03550157  RH  031%=      5-min Rain = 0
KLE1 040036Z 12012KT 36/16 A2995 RMK A01 T03550156  RH  031%=      5-min Rain = 0
KLE1 040037Z 12012KT 36/16 A2995 RMK A01 T03550156  RH  031%=      5-min Rain = 0
KLE1 040038Z 12013KT 36/15 A2995 RMK A01 T03550154  RH  030%=      5-min Rain = 0
KLE1 040039Z 12014KT 36/15 A2995 RMK A01 T03550154  RH  030%=      5-min Rain = 0
KLE1 040040Z 12013KT 35/15 A2995 RMK A01 T03540152  RH  030%=      5-min Rain = 0
KLE1 040041Z 13013KT 35/15 A2995 RMK A01 T03540153  RH  030%=      5-min Rain = 0
KLE1 040042Z 12012KT 35/15 A2995 RMK A01 T03540152  RH  030%=      5-min Rain = 0
KLE1 040043Z 13011KT 35/15 A2995 RMK A01 T03530154  RH  030%=      5-min Rain = 0
KLE1 040044Z 13012KT 35/15 A2995 RMK A01 T03530154  RH  031%=      5-min Rain = 0
KLE1 040045Z 13012KT 35/15 A2995 RMK A01 T03530154  RH  031%=      5-min Rain = 0
KLE1 040046Z 13010KT 35/16 A2995 RMK A01 T03530156  RH  031%=      5-min Rain = 0
KLE1 040047Z 13010KT 35/16 A2995 RMK A01 T03530157  RH  031%=      5-min Rain = 0
KLE1 040048Z 13012KT 35/16 A2995 RMK A01 T03520155  RH  031%=      5-min Rain = 0
KLE1 040049Z 13011KT 35/15 A2995 RMK A01 T03520154  RH  031%=      5-min Rain = 0
KLE1 040050Z 14012KT 35/15 A2995 RMK A01 T03520154  RH  031%=      5-min Rain = 0
KLE1 040051Z 13013KT 35/15 A2995 RMK A01 T03520153  RH  031%=      5-min Rain = 0
KLE1 040052Z 13012KT 35/15 A2995 RMK A01 T03520154  RH  031%=      5-min Rain = 0
KLE1 040053Z 13011KT 35/16 A2995 RMK A01 T03520155  RH  031%=      5-min Rain = 0
KLE1 040054Z 13011KT 35/16 A2995 RMK A01 T03510156  RH  031%=      5-min Rain = 0
KLE1 040055Z 14013KT 35/16 A2995 RMK A01 T03510155  RH  031%=      5-min Rain = 0
KLE1 040056Z 14014KT 35/15 A2995 RMK A01 T03510153  RH  031%=      5-min Rain = 0
KLE1 040057Z 13013KT 35/15 A2995 RMK A01 T03500154  RH  031%=      5-min Rain = 0
KLE1 040058Z 13014KT 35/16 A2995 RMK A01 T03500155  RH  031%=      5-min Rain = 0
KLE1 040059Z 13012KT 35/16 A2996 RMK A01 T03500156  RH  032%=      5-min Rain = 0
KLE1 040100Z 13012KT 35/16 A2996 RMK A01 T03490156  RH  032%=      5-min Rain = 0
KLE1 040101Z 13012KT 35/16 A2996 RMK A01 T03480156  RH  032%=      5-min Rain = 0
KLE1 040102Z 13011KT 35/16 A2996 RMK A01 T03480157  RH  032%=      5-min Rain = 0
KLE1 040103Z 13011KT 35/16 A2996 RMK A01 T03470158  RH  032%=      5-min Rain = 0
KLE1 040104Z 13012KT 35/16 A2996 RMK A01 T03470158  RH  032%=      5-min Rain = 0
KLE1 040105Z 13011KT 35/16 A2996 RMK A01 T03460157  RH  032%=      5-min Rain = 0
KLE1 040106Z 13010KT 35/16 A2996 RMK A01 T03460157  RH  032%=      5-min Rain = 0
KLE1 040107Z 13011KT 35/16 A2996 RMK A01 T03460158  RH  033%=      5-min Rain = 0
KLE1 040108Z 14010KT 35/16 A2996 RMK A01 T03450158  RH  033%=      5-min Rain = 0
KLE1 040109Z 14010KT 34/16 A2996 RMK A01 T03440157  RH  033%=      5-min Rain = 0
KLE1 040110Z 14010KT 34/16 A2996 RMK A01 T03440158  RH  033%=      5-min Rain = 0
KLE1 040111Z 13012KT 34/16 A2996 RMK A01 T03440158  RH  033%=      5-min Rain = 0
KLE1 040112Z 14012KT 34/16 A2996 RMK A01 T03440156  RH  033%=      5-min Rain = 0
KLE1 040113Z 14011KT 34/16 A2996 RMK A01 T03430156  RH  033%=      5-min Rain = 0
KLE1 040114Z 13009KT 34/16 A2996 RMK A01 T03430157  RH  033%=      5-min Rain = 0
KLE1 040115Z 14008KT 34/16 A2996 RMK A01 T03420158  RH  033%=      5-min Rain = 0
KLE1 040116Z 14011KT 34/16 A2996 RMK A01 T03410158  RH  033%=      5-min Rain = 0
KLE1 040117Z 14010KT 34/16 A2996 RMK A01 T03410157  RH  033%=      5-min Rain = 0
KLE1 040118Z 14010KT 34/16 A2996 RMK A01 T03410157  RH  033%=      5-min Rain = 0
KLE1 040119Z 14011KT 34/16 A2996 RMK A01 T03400156  RH  033%=      5-min Rain = 0
KLE1 040120Z 14010KT 34/16 A2996 RMK A01 T03400157  RH  033%=      5-min Rain = 0
KLE1 040121Z 14010KT 34/16 A2996 RMK A01 T03390156  RH  033%=      5-min Rain = 0
KLE1 040122Z 14010KT 34/16 A2996 RMK A01 T03390156  RH  033%=      5-min Rain = 0
KLE1 040123Z 14010KT 34/16 A2996 RMK A01 T03390156  RH  034%=      5-min Rain = 0
KLE1 040124Z 14010KT 34/16 A2996 RMK A01 T03390156  RH  034%=      5-min Rain = 0
KLE1 040125Z 14010KT 34/16 A2996 RMK A01 T03390156  RH  034%=      5-min Rain = 0
KLE1 040126Z 14010KT 34/16 A2996 RMK A01 T03380156  RH  034%=      5-min Rain = 0
KLE1 040127Z 14010KT 34/16 A2996 RMK A01 T03380157  RH  034%=      5-min Rain = 0
KLE1 040128Z 14010KT 34/16 A2996 RMK A01 T03370157  RH  034%=      5-min Rain = 0
KLE1 040129Z 14010KT 34/16 A2996 RMK A01 T03360157  RH  034%=      5-min Rain = 0
KLE1 040130Z 14010KT 34/16 A2996 RMK A01 T03370157  RH  034%=      5-min Rain = 0
KLE1 040131Z 14010KT 34/16 A2996 RMK A01 T03370157  RH  034%=      5-min Rain = 0
KLE1 040132Z 14009KT 34/16 A2996 RMK A01 T03360157  RH  034%=      5-min Rain = 0
KLE1 040133Z 14008KT 34/16 A2996 RMK A01 T03360157  RH  034%=      5-min Rain = 0
KLE1 040134Z 14010KT 34/16 A2996 RMK A01 T03350157  RH  034%=      5-min Rain = 0
KLE1 040135Z 14011KT 33/16 A2996 RMK A01 T03340157  RH  035%=      5-min Rain = 0
KLE1 040136Z 14010KT 33/16 A2996 RMK A01 T03340156  RH  034%=      5-min Rain = 0
KLE1 040137Z 14009KT 33/16 A2996 RMK A01 T03340157  RH  035%=      5-min Rain = 0
KLE1 040138Z 13009KT 33/16 A2996 RMK A01 T03340156  RH  035%=      5-min Rain = 0
KLE1 040139Z 14010KT 33/16 A2996 RMK A01 T03330157  RH  035%=      5-min Rain = 0
KLE1 040140Z 13010KT 33/16 A2996 RMK A01 T03330157  RH  035%=      5-min Rain = 0
KLE1 040141Z 13009KT 33/16 A2996 RMK A01 T03320158  RH  035%=      5-min Rain = 0
KLE1 040142Z 13009KT 33/16 A2996 RMK A01 T03310158  RH  035%=      5-min Rain = 0
KLE1 040143Z 13009KT 33/16 A2996 RMK A01 T03300158  RH  036%=      5-min Rain = 0
KLE1 040144Z 13008KT 33/16 A2996 RMK A01 T03290158  RH  036%=      5-min Rain = 0
KLE1 040145Z 13008KT 33/16 A2996 RMK A01 T03290158  RH  036%=      5-min Rain = 0
KLE1 040146Z 13008KT 33/16 A2996 RMK A01 T03280158  RH  036%=      5-min Rain = 0
KLE1 040147Z 13008KT 33/16 A2996 RMK A01 T03270158  RH  036%=      5-min Rain = 0
KLE1 040148Z 13008KT 33/16 A2996 RMK A01 T03260158  RH  036%=      5-min Rain = 0
KLE1 040149Z 13008KT 33/16 A2996 RMK A01 T03260158  RH  036%=      5-min Rain = 0
KLE1 040150Z 13008KT 33/16 A2996 RMK A01 T03260158  RH  036%=      5-min Rain = 0
KLE1 040151Z 13008KT 33/16 A2996 RMK A01 T03260158  RH  037%=      5-min Rain = 0
KLE1 040152Z 13008KT 33/16 A2996 RMK A01 T03250158  RH  037%=      5-min Rain = 0
KLE1 040153Z 12008KT 32/16 A2996 RMK A01 T03240158  RH  037%=      5-min Rain = 0
KLE1 040154Z 12008KT 32/16 A2996 RMK A01 T03230159  RH  037%=      5-min Rain = 0
KLE1 040155Z 12008KT 32/16 A2996 RMK A01 T03230158  RH  037%=      5-min Rain = 0
KLE1 040156Z 12008KT 32/16 A2996 RMK A01 T03220159  RH  037%=      5-min Rain = 0
KLE1 040157Z 12008KT 32/16 A2996 RMK A01 T03220158  RH  037%=      5-min Rain = 0
KLE1 040158Z 12008KT 32/16 A2996 RMK A01 T03220158  RH  037%=      5-min Rain = 0
KLE1 040159Z 12008KT 32/16 A2996 RMK A01 T03220158  RH  037%=      5-min Rain = 0
KLE1 040200Z 12008KT 32/16 A2996 RMK A01 T03210158  RH  037%=      5-min Rain = 0
KLE1 040201Z 12009KT 32/16 A2996 RMK A01 T03200158  RH  038%=      5-min Rain = 0
KLE1 040202Z 12008KT 32/16 A2996 RMK A01 T03200158  RH  038%=      5-min Rain = 0
KLE1 040203Z 12009KT 32/16 A2996 RMK A01 T03200158  RH  038%=      5-min Rain = 0
KLE1 040204Z 12008KT 32/16 A2996 RMK A01 T03200159  RH  038%=      5-min Rain = 0
KLE1 040205Z 12008KT 32/16 A2996 RMK A01 T03190158  RH  038%=      5-min Rain = 0
KLE1 040206Z 12008KT 32/16 A2996 RMK A01 T03190159  RH  038%=      5-min Rain = 0
KLE1 040207Z 12008KT 32/16 A2996 RMK A01 T03190159  RH  038%=      5-min Rain = 0
KLE1 040208Z 12008KT 32/16 A2996 RMK A01 T03180159  RH  038%=      5-min Rain = 0
KLE1 040209Z 12008KT 32/16 A2996 RMK A01 T03180158  RH  038%=      5-min Rain = 0
KLE1 040210Z 12008KT 32/16 A2996 RMK A01 T03180158  RH  038%=      5-min Rain = 0
KLE1 040211Z 12008KT 32/16 A2996 RMK A01 T03180158  RH  038%=      5-min Rain = 0
KLE1 040212Z 12009KT 32/16 A2996 RMK A01 T03180158  RH  038%=      5-min Rain = 0
KLE1 040213Z 12009KT 32/16 A2996 RMK A01 T03180158  RH  038%=      5-min Rain = 0
KLE1 040214Z 12008KT 32/16 A2996 RMK A01 T03180159  RH  038%=      5-min Rain = 0
KLE1 040215Z 13009KT 32/16 A2996 RMK A01 T03180159  RH  038%=      5-min Rain = 0
KLE1 040216Z 12010KT 32/16 A2996 RMK A01 T03170160  RH  039%=      5-min Rain = 0
KLE1 040217Z 12009KT 32/16 A2996 RMK A01 T03170161  RH  039%=      5-min Rain = 0
KLE1 040218Z 12009KT 32/16 A2996 RMK A01 T03170162  RH  039%=      5-min Rain = 0
KLE1 040219Z 12009KT 32/16 A2997 RMK A01 T03170162  RH  039%=      5-min Rain = 0
KLE1 040220Z 12009KT 32/16 A2997 RMK A01 T03160161  RH  039%=      5-min Rain = 0
KLE1 040221Z 12008KT 32/16 A2997 RMK A01 T03160161  RH  039%=      5-min Rain = 0
KLE1 040222Z 12008KT 32/16 A2997 RMK A01 T03160162  RH  039%=      5-min Rain = 0
KLE1 040223Z 12008KT 32/16 A2997 RMK A01 T03160161  RH  039%=      5-min Rain = 0
KLE1 040224Z 12008KT 32/16 A2997 RMK A01 T03160162  RH  039%=      5-min Rain = 0
KLE1 040225Z 12008KT 32/16 A2997 RMK A01 T03160162  RH  040%=      5-min Rain = 0
KLE1 040226Z 12008KT 32/16 A2997 RMK A01 T03150161  RH  040%=      5-min Rain = 0
KLE1 040227Z 12008KT 31/16 A2997 RMK A01 T03140161  RH  040%=      5-min Rain = 0
KLE1 040228Z 11008KT 31/16 A2997 RMK A01 T03140161  RH  040%=      5-min Rain = 0
KLE1 040229Z 11008KT 31/16 A2997 RMK A01 T03130162  RH  040%=      5-min Rain = 0
KLE1 040230Z 12009KT 31/16 A2997 RMK A01 T03130162  RH  040%=      5-min Rain = 0
KLE1 040231Z 12009KT 31/16 A2997 RMK A01 T03130163  RH  040%=      5-min Rain = 0
KLE1 040232Z 11009KT 31/16 A2997 RMK A01 T03130163  RH  041%=      5-min Rain = 0
KLE1 040233Z 12009KT 31/16 A2997 RMK A01 T03130163  RH  041%=      5-min Rain = 0
KLE1 040234Z 11009KT 31/16 A2997 RMK A01 T03120164  RH  041%=      5-min Rain = 0
KLE1 040235Z 12009KT 31/16 A2997 RMK A01 T03120164  RH  041%=      5-min Rain = 0
KLE1 040236Z 11009KT 31/16 A2997 RMK A01 T03120163  RH  041%=      5-min Rain = 0
KLE1 040237Z 11008KT 31/16 A2998 RMK A01 T03120164  RH  041%=      5-min Rain = 0
KLE1 040238Z 12009KT 31/16 A2998 RMK A01 T03120164  RH  041%=      5-min Rain = 0
KLE1 040239Z 12008KT 31/16 A2998 RMK A01 T03120163  RH  041%=      5-min Rain = 0
KLE1 040240Z 12008KT 31/16 A2998 RMK A01 T03120164  RH  041%=      5-min Rain = 0
KLE1 040241Z 12009KT 31/16 A2998 RMK A01 T03110164  RH  041%=      5-min Rain = 0
KLE1 040242Z 12008KT 31/16 A2998 RMK A01 T03100164  RH  041%=      5-min Rain = 0
KLE1 040243Z 12008KT 31/16 A2998 RMK A01 T03100164  RH  041%=      5-min Rain = 0
KLE1 040244Z 12008KT 31/16 A2998 RMK A01 T03100164  RH  042%=      5-min Rain = 0
KLE1 040245Z 12008KT 31/17 A2998 RMK A01 T03100165  RH  042%=      5-min Rain = 0
KLE1 040246Z 11008KT 31/17 A2998 RMK A01 T03100165  RH  042%=      5-min Rain = 0
KLE1 040247Z 11008KT 31/17 A2998 RMK A01 T03090165  RH  042%=      5-min Rain = 0
KLE1 040248Z 11007KT 31/17 A2998 RMK A01 T03080165  RH  042%=      5-min Rain = 0
KLE1 040249Z 11008KT 31/17 A2998 RMK A01 T03080165  RH  042%=      5-min Rain = 0
KLE1 040250Z 11008KT 31/17 A2998 RMK A01 T03080165  RH  042%=      5-min Rain = 0
KLE1 040251Z 11008KT 31/17 A2998 RMK A01 T03070165  RH  043%=      5-min Rain = 0
KLE1 040252Z 11008KT 31/17 A2998 RMK A01 T03060165  RH  043%=      5-min Rain = 0
KLE1 040253Z 11008KT 31/17 A2998 RMK A01 T03060166  RH  043%=      5-min Rain = 0
KLE1 040254Z 11008KT 31/17 A2998 RMK A01 T03060166  RH  043%=      5-min Rain = 0
KLE1 040255Z 11008KT 31/17 A2998 RMK A01 T03050165  RH  043%=      5-min Rain = 0
KLE1 040256Z 11008KT 31/17 A2998 RMK A01 T03050165  RH  043%=      5-min Rain = 0
KLE1 040257Z 11008KT 31/17 A2998 RMK A01 T03050165  RH  043%=      5-min Rain = 0
KLE1 040258Z 12008KT 31/17 A2998 RMK A01 T03050165  RH  043%=      5-min Rain = 0
KLE1 040259Z 12008KT 30/17 A2999 RMK A01 T03040165  RH  043%=      5-min Rain = 0
KLE1 040300Z 12007KT 30/17 A2999 RMK A01 T03040165  RH  043%=      5-min Rain = 0
KLE1 040301Z 12007KT 30/17 A2999 RMK A01 T03040166  RH  043%=      5-min Rain = 0
KLE1 040302Z 12007KT 30/17 A2999 RMK A01 T03040166  RH  043%=      5-min Rain = 0
KLE1 040303Z 12007KT 30/17 A2999 RMK A01 T03040166  RH  044%=      5-min Rain = 0
KLE1 040304Z 12007KT 30/17 A2999 RMK A01 T03030166  RH  044%=      5-min Rain = 0
KLE1 040305Z 12007KT 30/17 A2999 RMK A01 T03030166  RH  044%=      5-min Rain = 0
KLE1 040306Z 12007KT 30/17 A2999 RMK A01 T03030166  RH  044%=      5-min Rain = 0
KLE1 040307Z 12007KT 30/17 A2999 RMK A01 T03030167  RH  044%=      5-min Rain = 0
KLE1 040308Z 12006KT 30/17 A2999 RMK A01 T03020167  RH  044%=      5-min Rain = 0
KLE1 040309Z 12006KT 30/17 A2999 RMK A01 T03020167  RH  044%=      5-min Rain = 0
KLE1 040310Z 11006KT 30/17 A30 RMK A01 T03010167  RH  044%=      5-min Rain = 0
KLE1 040311Z 11006KT 30/17 A30 RMK A01 T03000167  RH  045%=      5-min Rain = 0
KLE1 040312Z 11006KT 30/17 A30 RMK A01 T03000167  RH  045%=      5-min Rain = 0
KLE1 040313Z 11006KT 30/17 A30 RMK A01 T02990167  RH  045%=      5-min Rain = 0
KLE1 040314Z 11006KT 30/17 A30 RMK A01 T02990167  RH  045%=      5-min Rain = 0
KLE1 040315Z 11006KT 30/17 A30 RMK A01 T02980167  RH  045%=      5-min Rain = 0
KLE1 040316Z 11006KT 30/17 A30 RMK A01 T02980167  RH  045%=      5-min Rain = 0
KLE1 040317Z 11006KT 30/17 A30 RMK A01 T02970167  RH  045%=      5-min Rain = 0
KLE1 040318Z 11006KT 30/17 A30 RMK A01 T02970166  RH  045%=      5-min Rain = 0
KLE1 040319Z 11007KT 30/17 A30 RMK A01 T02970166  RH  045%=      5-min Rain = 0
KLE1 040320Z 11007KT 30/17 A30 RMK A01 T02970166  RH  045%=      5-min Rain = 0
KLE1 040321Z 11007KT 30/17 A30 RMK A01 T02970167  RH  045%=      5-min Rain = 0
KLE1 040322Z 11007KT 30/17 A30 RMK A01 T02970167  RH  045%=      5-min Rain = 0
KLE1 040323Z 11007KT 30/17 A30 RMK A01 T02970167  RH  045%=      5-min Rain = 0
KLE1 040324Z 11007KT 30/17 A30 RMK A01 T02980167  RH  045%=      5-min Rain = 0
KLE1 040325Z 11007KT 30/17 A30 RMK A01 T02980167  RH  045%=      5-min Rain = 0
KLE1 040326Z 11007KT 30/17 A30 RMK A01 T02970167  RH  045%=      5-min Rain = 0
KLE1 040327Z 10006KT 30/17 A3001 RMK A01 T02980167  RH  045%=      5-min Rain = 0
KLE1 040328Z 11006KT 30/17 A3001 RMK A01 T02970166  RH  045%=      5-min Rain = 0
KLE1 040329Z 11006KT 30/17 A3001 RMK A01 T02980167  RH  045%=      5-min Rain = 0
KLE1 040330Z 11006KT 30/17 A3001 RMK A01 T02980167  RH  045%=      5-min Rain = 0
KLE1 040331Z 11006KT 30/17 A3001 RMK A01 T02980167  RH  045%=      5-min Rain = 0
KLE1 040332Z 11006KT 30/17 A3001 RMK A01 T02990167  RH  045%=      5-min Rain = 0
KLE1 040333Z 11006KT 30/17 A3001 RMK A01 T02990167  RH  045%=      5-min Rain = 0
KLE1 040334Z 10006KT 30/17 A3001 RMK A01 T02980168  RH  045%=      5-min Rain = 0
KLE1 040335Z 11006KT 30/17 A3001 RMK A01 T02980167  RH  045%=      5-min Rain = 0
KLE1 040336Z 11006KT 30/17 A3001 RMK A01 T02980168  RH  045%=      5-min Rain = 0
KLE1 040337Z 11006KT 30/17 A3001 RMK A01 T02980167  RH  046%=      5-min Rain = 0
KLE1 040338Z 11006KT 30/17 A3001 RMK A01 T02970167  RH  046%=      5-min Rain = 0
KLE1 040339Z 10006KT 30/17 A3001 RMK A01 T02970167  RH  046%=      5-min Rain = 0
KLE1 040340Z 11006KT 30/17 A3001 RMK A01 T02970167  RH  046%=      5-min Rain = 0
KLE1 040341Z 10006KT 30/17 A3001 RMK A01 T02970167  RH  046%=      5-min Rain = 0
KLE1 040342Z 11006KT 30/17 A3001 RMK A01 T02960167  RH  046%=      5-min Rain = 0
KLE1 040343Z 11006KT 30/17 A3001 RMK A01 T02960167  RH  046%=      5-min Rain = 0
KLE1 040344Z 11007KT 30/17 A3001 RMK A01 T02960167  RH  046%=      5-min Rain = 0
KLE1 040345Z 11007KT 30/17 A3001 RMK A01 T02960168  RH  046%=      5-min Rain = 0
KLE1 040346Z 11007KT 30/17 A3001 RMK A01 T02960168  RH  046%=      5-min Rain = 0
KLE1 040347Z 11006KT 30/17 A3001 RMK A01 T02960168  RH  046%=      5-min Rain = 0
KLE1 040348Z 11007KT 30/17 A3001 RMK A01 T02960168  RH  046%=      5-min Rain = 0
KLE1 040349Z 11007KT 30/17 A3001 RMK A01 T02960168  RH  046%=      5-min Rain = 0
KLE1 040350Z 11007KT 30/17 A3001 RMK A01 T02960168  RH  046%=      5-min Rain = 0
KLE1 040351Z 11006KT 30/17 A3001 RMK A01 T02950168  RH  046%=      5-min Rain = 0
KLE1 040352Z 11007KT 30/17 A3001 RMK A01 T02950168  RH  046%=      5-min Rain = 0
KLE1 040353Z 11006KT 30/17 A3001 RMK A01 T02950168  RH  046%=      5-min Rain = 0
KLE1 040354Z 11006KT 30/17 A3001 RMK A01 T02950168  RH  046%=      5-min Rain = 0
KLE1 040355Z 11006KT 30/17 A3001 RMK A01 T02950168  RH  046%=      5-min Rain = 0
KLE1 040356Z 11006KT 30/17 A3001 RMK A01 T02950168  RH  046%=      5-min Rain = 0
KLE1 040357Z 11006KT 29/17 A3001 RMK A01 T02940168  RH  046%=      5-min Rain = 0
KLE1 040358Z 11006KT 29/17 A3001 RMK A01 T02940168  RH  047%=      5-min Rain = 0
KLE1 040359Z 10006KT 29/17 A3001 RMK A01 T02940168  RH  047%=      5-min Rain = 0
KLE1 040400Z 10006KT 29/17 A3001 RMK A01 T02930168  RH  047%=      5-min Rain = 0
KLE1 040401Z 10007KT 29/17 A3001 RMK A01 T02930168  RH  047%=      5-min Rain = 0
KLE1 040402Z 10007KT 29/17 A3001 RMK A01 T02930168  RH  047%=      5-min Rain = 0
KLE1 040403Z 10007KT 29/17 A3001 RMK A01 T02930167  RH  047%=      5-min Rain = 0
KLE1 040404Z 10007KT 29/17 A3001 RMK A01 T02930168  RH  047%=      5-min Rain = 0
KLE1 040405Z 10007KT 29/17 A3001 RMK A01 T02930168  RH  047%=      5-min Rain = 0
KLE1 040406Z 09007KT 29/17 A3001 RMK A01 T02930168  RH  047%=      5-min Rain = 0
KLE1 040407Z 10007KT 29/17 A3001 RMK A01 T02930167  RH  047%=      5-min Rain = 0
KLE1 040408Z 09007KT 29/17 A3001 RMK A01 T02930167  RH  047%=      5-min Rain = 0
KLE1 040409Z 10006KT 29/17 A3001 RMK A01 T02920167  RH  047%=      5-min Rain = 0
KLE1 040410Z 09006KT 29/17 A3002 RMK A01 T02920167  RH  047%=      5-min Rain = 0
KLE1 040411Z 09006KT 29/17 A3002 RMK A01 T02920167  RH  047%=      5-min Rain = 0
KLE1 040412Z 09006KT 29/17 A3002 RMK A01 T02920167  RH  047%=      5-min Rain = 0
KLE1 040413Z 10006KT 29/17 A3001 RMK A01 T02920167  RH  047%=      5-min Rain = 0
KLE1 040414Z 10006KT 29/17 A3001 RMK A01 T02920167  RH  047%=      5-min Rain = 0
KLE1 040415Z 10006KT 29/17 A3001 RMK A01 T02910167  RH  047%=      5-min Rain = 0
KLE1 040416Z 10006KT 29/17 A3001 RMK A01 T02900167  RH  047%=      5-min Rain = 0
KLE1 040417Z 10006KT 29/17 A3001 RMK A01 T02900167  RH  047%=      5-min Rain = 0
KLE1 040418Z 10006KT 29/17 A3001 RMK A01 T02900167  RH  047%=      5-min Rain = 0
KLE1 040419Z 10006KT 29/17 A3001 RMK A01 T02900167  RH  047%=      5-min Rain = 0
KLE1 040420Z 10006KT 29/17 A3001 RMK A01 T02900167  RH  048%=      5-min Rain = 0
KLE1 040421Z 10006KT 29/17 A3001 RMK A01 T02900167  RH  048%=      5-min Rain = 0
KLE1 040422Z 10006KT 29/17 A3001 RMK A01 T02890167  RH  048%=      5-min Rain = 0
KLE1 040423Z 10006KT 29/17 A3001 RMK A01 T02890167  RH  048%=      5-min Rain = 0
KLE1 040424Z 10006KT 29/17 A3001 RMK A01 T02880167  RH  048%=      5-min Rain = 0
KLE1 040425Z 10006KT 29/17 A3001 RMK A01 T02880167  RH  048%=      5-min Rain = 0
KLE1 040426Z 10007KT 29/17 A3001 RMK A01 T02880167  RH  048%=      5-min Rain = 0
KLE1 040427Z 10006KT 29/17 A3001 RMK A01 T02880167  RH  048%=      5-min Rain = 0
KLE1 040428Z 09006KT 29/17 A3001 RMK A01 T02880167  RH  048%=      5-min Rain = 0
KLE1 040429Z 10006KT 29/17 A3001 RMK A01 T02880167  RH  048%=      5-min Rain = 0
KLE1 040430Z 10006KT 29/17 A3001 RMK A01 T02880167  RH  048%=      5-min Rain = 0
KLE1 040431Z 10006KT 29/17 A3001 RMK A01 T02880167  RH  048%=      5-min Rain = 0
KLE1 040432Z 10006KT 29/17 A3001 RMK A01 T02870167  RH  048%=      5-min Rain = 0
KLE1 040433Z 10006KT 29/17 A3001 RMK A01 T02880167  RH  048%=      5-min Rain = 0
KLE1 040434Z 10006KT 29/17 A3001 RMK A01 T02880167  RH  048%=      5-min Rain = 0
KLE1 040435Z 10006KT 29/17 A3001 RMK A01 T02880167  RH  048%=      5-min Rain = 0
KLE1 040436Z 10006KT 29/17 A3001 RMK A01 T02880167  RH  048%=      5-min Rain = 0
KLE1 040437Z 10006KT 29/17 A3001 RMK A01 T02880167  RH  048%=      5-min Rain = 0
KLE1 040438Z 10006KT 29/17 A3001 RMK A01 T02880167  RH  048%=      5-min Rain = 0
KLE1 040439Z 10006KT 29/17 A3001 RMK A01 T02880167  RH  048%=      5-min Rain = 0
KLE1 040440Z 10006KT 29/17 A3001 RMK A01 T02880167  RH  048%=      5-min Rain = 0
KLE1 040441Z 10007KT 29/17 A3001 RMK A01 T02880168  RH  048%=      5-min Rain = 0
KLE1 040442Z 10007KT 29/17 A3001 RMK A01 T02870167  RH  048%=      5-min Rain = 0
KLE1 040443Z 10006KT 29/17 A3001 RMK A01 T02870168  RH  048%=      5-min Rain = 0
KLE1 040444Z 10007KT 29/17 A3001 RMK A01 T02870167  RH  048%=      5-min Rain = 0
KLE1 040445Z 10007KT 29/17 A3001 RMK A01 T02870168  RH  048%=      5-min Rain = 0
KLE1 040446Z 10006KT 29/17 A3001 RMK A01 T02870167  RH  048%=      5-min Rain = 0
KLE1 040447Z 10006KT 29/17 A3001 RMK A01 T02870167  RH  048%=      5-min Rain = 0
KLE1 040448Z 10006KT 29/17 A3001 RMK A01 T02880167  RH  048%=      5-min Rain = 0
KLE1 040449Z 10006KT 29/17 A3001 RMK A01 T02880167  RH  048%=      5-min Rain = 0
KLE1 040450Z 10007KT 29/17 A3001 RMK A01 T02870167  RH  048%=      5-min Rain = 0
KLE1 040451Z 11007KT 29/17 A3001 RMK A01 T02870167  RH  048%=      5-min Rain = 0
KLE1 040452Z 11007KT 29/17 A3001 RMK A01 T02870166  RH  048%=      5-min Rain = 0
KLE1 040453Z 11007KT 29/17 A3001 RMK A01 T02880167  RH  048%=      5-min Rain = 0
KLE1 040454Z 11007KT 29/17 A3001 RMK A01 T02880166  RH  048%=      5-min Rain = 0
KLE1 040455Z 11007KT 29/17 A3001 RMK A01 T02890166  RH  047%=      5-min Rain = 0
KLE1 040456Z 11007KT 29/17 A3001 RMK A01 T02900166  RH  047%=      5-min Rain = 0
KLE1 040457Z 11007KT 29/17 A3001 RMK A01 T02910166  RH  047%=      5-min Rain = 0
KLE1 040458Z 11008KT 29/17 A3001 RMK A01 T02900166  RH  047%=      5-min Rain = 0
KLE1 040459Z 11007KT 29/17 A3001 RMK A01 T02910166  RH  047%=      5-min Rain = 0

Page generated in 0.0713 seconds.